<?xml version="1.0" encoding="UTF-8" standalone="no" ?><gpx xmlns="http://www.topografix.com/GPX/1/1" xmlns:gpxx="http://www.garmin.com/xmlschemas/GpxExtensions/v3" xmlns:wptx1="http://www.garmin.com/xmlschemas/WaypointExtension/v1" xmlns:gpxtpx="http://www.garmin.com/xmlschemas/TrackPointExtension/v1" creator="GuideVTT.com" version="1.1" xmlns:xsi="http://www.w3.org/2001/XMLSchema-instance" xsi:schemaLocation="http://www.topografix.com/GPX/1/1 http://www.topografix.com/GPX/1/1/gpx.xsd http://www.garmin.com/xmlschemas/GpxExtensions/v3 http://www8.garmin.com/xmlschemas/GpxExtensionsv3.xsd http://www.garmin.com/xmlschemas/WaypointExtension/v1 http://www8.garmin.com/xmlschemas/WaypointExtensionv1.xsd http://www.garmin.com/xmlschemas/TrackPointExtension/v1 http://www.garmin.com/xmlschemas/TrackPointExtensionv1.xsd">
<metadata><link href="http://www.garmin.com"><text>Garmin International</text></link><time>2013-06-22T15:13:50Z</time></metadata>
<trk><name>frejus.gpx</name><extensions><gpxx:TrackExtension><gpxx:DisplayColor>Cyan</gpxx:DisplayColor></gpxx:TrackExtension></extensions><trkseg>
<trkpt lat="43.47895150" lon="6.67405600"><ele>65.987671</ele><time>2007-08-25T12:38:51Z</time></trkpt>
<trkpt lat="43.47895140" lon="6.67405550"><ele>65.987671</ele><time>2007-08-25T12:38:52Z</time></trkpt>
<trkpt lat="43.47895090" lon="6.67405450"><ele>64.545654</ele><time>2007-08-25T12:39:38Z</time></trkpt>
<trkpt lat="43.47902980" lon="6.67455640"><ele>63.103638</ele><time>2007-08-25T12:39:53Z</time></trkpt>
<trkpt lat="43.47907250" lon="6.67476960"><ele>64.545654</ele><time>2007-08-25T12:39:59Z</time></trkpt>
<trkpt lat="43.47916210" lon="6.67477740"><ele>64.065063</ele><time>2007-08-25T12:40:03Z</time></trkpt>
<trkpt lat="43.47948720" lon="6.67456100"><ele>67.429688</ele><time>2007-08-25T12:40:18Z</time></trkpt>
<trkpt lat="43.47949440" lon="6.67455430"><ele>66.468262</ele><time>2007-08-25T12:40:36Z</time></trkpt>
<trkpt lat="43.47950270" lon="6.67454800"><ele>65.50708</ele><time>2007-08-25T12:41:00Z</time></trkpt>
<trkpt lat="43.47950790" lon="6.67454290"><ele>66.948975</ele><time>2007-08-25T12:41:14Z</time></trkpt>
<trkpt lat="43.47960380" lon="6.67449680"><ele>66.468262</ele><time>2007-08-25T12:41:21Z</time></trkpt>
<trkpt lat="43.47993930" lon="6.67433340"><ele>69.832886</ele><time>2007-08-25T12:41:37Z</time></trkpt>
<trkpt lat="43.48041630" lon="6.67419630"><ele>71.274902</ele><time>2007-08-25T12:41:56Z</time></trkpt>
<trkpt lat="43.48075620" lon="6.67435620"><ele>72.236206</ele><time>2007-08-25T12:42:08Z</time></trkpt>
<trkpt lat="43.48112250" lon="6.67422900"><ele>70.313477</ele><time>2007-08-25T12:42:18Z</time></trkpt>
<trkpt lat="43.48126010" lon="6.67415130"><ele>69.352295</ele><time>2007-08-25T12:42:21Z</time></trkpt>
<trkpt lat="43.48148120" lon="6.67422080"><ele>69.832886</ele><time>2007-08-25T12:42:28Z</time></trkpt>
<trkpt lat="43.48152580" lon="6.67430780"><ele>69.832886</ele><time>2007-08-25T12:42:30Z</time></trkpt>
<trkpt lat="43.48183050" lon="6.67467190"><ele>70.794189</ele><time>2007-08-25T12:42:39Z</time></trkpt>
<trkpt lat="43.48184600" lon="6.67467800"><ele>70.794189</ele><time>2007-08-25T12:42:49Z</time></trkpt>
<trkpt lat="43.48184770" lon="6.67466920"><ele>70.794189</ele><time>2007-08-25T12:43:11Z</time></trkpt>
<trkpt lat="43.48184400" lon="6.67468130"><ele>70.794189</ele><time>2007-08-25T12:43:30Z</time></trkpt>
<trkpt lat="43.48210850" lon="6.67490280"><ele>71.274902</ele><time>2007-08-25T12:43:41Z</time></trkpt>
<trkpt lat="43.48257240" lon="6.67515440"><ele>73.197632</ele><time>2007-08-25T12:43:57Z</time></trkpt>
<trkpt lat="43.48275260" lon="6.67555460"><ele>73.197632</ele><time>2007-08-25T12:44:09Z</time></trkpt>
<trkpt lat="43.48312650" lon="6.67606890"><ele>74.639526</ele><time>2007-08-25T12:44:25Z</time></trkpt>
<trkpt lat="43.48342950" lon="6.67671390"><ele>75.60083</ele><time>2007-08-25T12:44:41Z</time></trkpt>
<trkpt lat="43.48371650" lon="6.67729920"><ele>78.004028</ele><time>2007-08-25T12:44:59Z</time></trkpt>
<trkpt lat="43.48415260" lon="6.67739850"><ele>78.965454</ele><time>2007-08-25T12:45:15Z</time></trkpt>
<trkpt lat="43.48469630" lon="6.67749460"><ele>79.446045</ele><time>2007-08-25T12:45:29Z</time></trkpt>
<trkpt lat="43.48519400" lon="6.67771450"><ele>78.965454</ele><time>2007-08-25T12:45:44Z</time></trkpt>
<trkpt lat="43.48508310" lon="6.67843070"><ele>77.523438</ele><time>2007-08-25T12:45:59Z</time></trkpt>
<trkpt lat="43.48500650" lon="6.67875080"><ele>77.042847</ele><time>2007-08-25T12:46:05Z</time></trkpt>
<trkpt lat="43.48499600" lon="6.67897660"><ele>77.523438</ele><time>2007-08-25T12:46:09Z</time></trkpt>
<trkpt lat="43.48503910" lon="6.67928560"><ele>75.60083</ele><time>2007-08-25T12:46:14Z</time></trkpt>
<trkpt lat="43.48503610" lon="6.67970840"><ele>71.274902</ele><time>2007-08-25T12:46:19Z</time></trkpt>
<trkpt lat="43.48501940" lon="6.67979740"><ele>70.313477</ele><time>2007-08-25T12:46:20Z</time></trkpt>
<trkpt lat="43.48486500" lon="6.68029180"><ele>72.236206</ele><time>2007-08-25T12:46:27Z</time></trkpt>
<trkpt lat="43.48504070" lon="6.68030250"><ele>70.313477</ele><time>2007-08-25T12:46:35Z</time></trkpt>
<trkpt lat="43.48555450" lon="6.68010010"><ele>68.871582</ele><time>2007-08-25T12:46:45Z</time></trkpt>
<trkpt lat="43.48613110" lon="6.68018190"><ele>66.948975</ele><time>2007-08-25T12:46:54Z</time></trkpt>
<trkpt lat="43.48662530" lon="6.68051230"><ele>63.103638</ele><time>2007-08-25T12:47:03Z</time></trkpt>
<trkpt lat="43.48721920" lon="6.68085170"><ele>59.258423</ele><time>2007-08-25T12:47:14Z</time></trkpt>
<trkpt lat="43.48743300" lon="6.68094080"><ele>59.739136</ele><time>2007-08-25T12:47:18Z</time></trkpt>
<trkpt lat="43.48769800" lon="6.68109430"><ele>60.219727</ele><time>2007-08-25T12:47:27Z</time></trkpt>
<trkpt lat="43.48797830" lon="6.68119170"><ele>59.258423</ele><time>2007-08-25T12:47:41Z</time></trkpt>
<trkpt lat="43.48809960" lon="6.68127080"><ele>59.739136</ele><time>2007-08-25T12:47:48Z</time></trkpt>
<trkpt lat="43.48845800" lon="6.68111750"><ele>58.297119</ele><time>2007-08-25T12:48:02Z</time></trkpt>
<trkpt lat="43.48886720" lon="6.68100130"><ele>57.335815</ele><time>2007-08-25T12:48:17Z</time></trkpt>
<trkpt lat="43.48892140" lon="6.68102330"><ele>58.297119</ele><time>2007-08-25T12:48:19Z</time></trkpt>
<trkpt lat="43.48912650" lon="6.68086980"><ele>58.77771</ele><time>2007-08-25T12:48:27Z</time></trkpt>
<trkpt lat="43.48930700" lon="6.68099970"><ele>60.219727</ele><time>2007-08-25T12:48:38Z</time></trkpt>
<trkpt lat="43.48940430" lon="6.68113200"><ele>62.622925</ele><time>2007-08-25T12:48:45Z</time></trkpt>
<trkpt lat="43.48945060" lon="6.68150960"><ele>63.103638</ele><time>2007-08-25T12:48:59Z</time></trkpt>
<trkpt lat="43.48968260" lon="6.68175930"><ele>64.545654</ele><time>2007-08-25T12:49:11Z</time></trkpt>
<trkpt lat="43.48990530" lon="6.68236590"><ele>65.50708</ele><time>2007-08-25T12:49:29Z</time></trkpt>
<trkpt lat="43.49021090" lon="6.68277500"><ele>66.468262</ele><time>2007-08-25T12:49:44Z</time></trkpt>
<trkpt lat="43.49063470" lon="6.68315630"><ele>66.948975</ele><time>2007-08-25T12:49:58Z</time></trkpt>
<trkpt lat="43.49097620" lon="6.68347590"><ele>67.910278</ele><time>2007-08-25T12:50:12Z</time></trkpt>
<trkpt lat="43.49108370" lon="6.68383140"><ele>69.352295</ele><time>2007-08-25T12:50:21Z</time></trkpt>
<trkpt lat="43.49116910" lon="6.68378170"><ele>68.390869</ele><time>2007-08-25T12:50:25Z</time></trkpt>
<trkpt lat="43.49122980" lon="6.68360560"><ele>67.429688</ele><time>2007-08-25T12:50:36Z</time></trkpt>
<trkpt lat="43.49121100" lon="6.68359260"><ele>67.910278</ele><time>2007-08-25T12:51:23Z</time></trkpt>
<trkpt lat="43.49121940" lon="6.68365270"><ele>67.429688</ele><time>2007-08-25T12:51:33Z</time></trkpt>
<trkpt lat="43.49121480" lon="6.68361930"><ele>67.429688</ele><time>2007-08-25T12:52:43Z</time></trkpt>
<trkpt lat="43.49120530" lon="6.68360500"><ele>67.910278</ele><time>2007-08-25T12:56:01Z</time></trkpt>
<trkpt lat="43.49124860" lon="6.68361780"><ele>69.352295</ele><time>2007-08-25T12:59:47Z</time></trkpt>
<trkpt lat="43.49126350" lon="6.68365930"><ele>71.274902</ele><time>2007-08-25T13:00:35Z</time></trkpt>
<trkpt lat="43.49125990" lon="6.68365820"><ele>71.755493</ele><time>2007-08-25T13:01:59Z</time></trkpt>
<trkpt lat="43.49124290" lon="6.68365980"><ele>73.678223</ele><time>2007-08-25T13:02:32Z</time></trkpt>
<trkpt lat="43.49119820" lon="6.68371900"><ele>71.755493</ele><time>2007-08-25T13:02:37Z</time></trkpt>
<trkpt lat="43.49117750" lon="6.68376500"><ele>72.716919</ele><time>2007-08-25T13:02:39Z</time></trkpt>
<trkpt lat="43.49116560" lon="6.68383870"><ele>73.197632</ele><time>2007-08-25T13:02:42Z</time></trkpt>
<trkpt lat="43.49117630" lon="6.68393260"><ele>73.678223</ele><time>2007-08-25T13:02:56Z</time></trkpt>
<trkpt lat="43.49117600" lon="6.68392000"><ele>73.197632</ele><time>2007-08-25T13:03:30Z</time></trkpt>
<trkpt lat="43.49117900" lon="6.68391260"><ele>73.197632</ele><time>2007-08-25T13:03:38Z</time></trkpt>
<trkpt lat="43.49131900" lon="6.68423800"><ele>72.236206</ele><time>2007-08-25T13:03:49Z</time></trkpt>
<trkpt lat="43.49142520" lon="6.68427470"><ele>73.197632</ele><time>2007-08-25T13:03:53Z</time></trkpt>
<trkpt lat="43.49183960" lon="6.68393690"><ele>74.158813</ele><time>2007-08-25T13:04:10Z</time></trkpt>
<trkpt lat="43.49208780" lon="6.68373810"><ele>72.716919</ele><time>2007-08-25T13:04:26Z</time></trkpt>
<trkpt lat="43.49245010" lon="6.68337550"><ele>71.755493</ele><time>2007-08-25T13:04:40Z</time></trkpt>
<trkpt lat="43.49280650" lon="6.68291080"><ele>71.755493</ele><time>2007-08-25T13:04:56Z</time></trkpt>
<trkpt lat="43.49314910" lon="6.68222220"><ele>71.274902</ele><time>2007-08-25T13:05:14Z</time></trkpt>
<trkpt lat="43.49340540" lon="6.68159400"><ele>69.832886</ele><time>2007-08-25T13:05:28Z</time></trkpt>
<trkpt lat="43.49367210" lon="6.68121280"><ele>71.274902</ele><time>2007-08-25T13:05:40Z</time></trkpt>
<trkpt lat="43.49411680" lon="6.68084180"><ele>71.755493</ele><time>2007-08-25T13:05:55Z</time></trkpt>
<trkpt lat="43.49431250" lon="6.68030740"><ele>73.197632</ele><time>2007-08-25T13:06:08Z</time></trkpt>
<trkpt lat="43.49430780" lon="6.67966750"><ele>74.158813</ele><time>2007-08-25T13:06:25Z</time></trkpt>
<trkpt lat="43.49411360" lon="6.67927580"><ele>75.60083</ele><time>2007-08-25T13:06:38Z</time></trkpt>
<trkpt lat="43.49393080" lon="6.67907710"><ele>78.484741</ele><time>2007-08-25T13:06:50Z</time></trkpt>
<trkpt lat="43.49388630" lon="6.67902350"><ele>78.965454</ele><time>2007-08-25T13:06:54Z</time></trkpt>
<trkpt lat="43.49389610" lon="6.67888830"><ele>79.926636</ele><time>2007-08-25T13:07:03Z</time></trkpt>
<trkpt lat="43.49394590" lon="6.67871230"><ele>79.926636</ele><time>2007-08-25T13:07:15Z</time></trkpt>
<trkpt lat="43.49396340" lon="6.67869250"><ele>80.888184</ele><time>2007-08-25T13:07:17Z</time></trkpt>
<trkpt lat="43.49398150" lon="6.67871440"><ele>79.446045</ele><time>2007-08-25T13:07:20Z</time></trkpt>
<trkpt lat="43.49396370" lon="6.67873260"><ele>79.446045</ele><time>2007-08-25T13:07:40Z</time></trkpt>
<trkpt lat="43.49396130" lon="6.67867930"><ele>79.926636</ele><time>2007-08-25T13:07:44Z</time></trkpt>
<trkpt lat="43.49405310" lon="6.67851380"><ele>80.407471</ele><time>2007-08-25T13:07:53Z</time></trkpt>
<trkpt lat="43.49404840" lon="6.67844200"><ele>80.407471</ele><time>2007-08-25T13:07:57Z</time></trkpt>
<trkpt lat="43.49397000" lon="6.67804050"><ele>80.407471</ele><time>2007-08-25T13:08:11Z</time></trkpt>
<trkpt lat="43.49377850" lon="6.67782480"><ele>78.004028</ele><time>2007-08-25T13:08:22Z</time></trkpt>
<trkpt lat="43.49362880" lon="6.67771060"><ele>76.562134</ele><time>2007-08-25T13:08:28Z</time></trkpt>
<trkpt lat="43.49335900" lon="6.67770540"><ele>75.120239</ele><time>2007-08-25T13:08:40Z</time></trkpt>
<trkpt lat="43.49310550" lon="6.67769170"><ele>73.678223</ele><time>2007-08-25T13:08:54Z</time></trkpt>
<trkpt lat="43.49305170" lon="6.67765140"><ele>72.716919</ele><time>2007-08-25T13:08:56Z</time></trkpt>
<trkpt lat="43.49269790" lon="6.67735820"><ele>70.313477</ele><time>2007-08-25T13:09:08Z</time></trkpt>
<trkpt lat="43.49258530" lon="6.67722030"><ele>68.871582</ele><time>2007-08-25T13:09:12Z</time></trkpt>
<trkpt lat="43.49255920" lon="6.67712390"><ele>67.910278</ele><time>2007-08-25T13:09:14Z</time></trkpt>
<trkpt lat="43.49254290" lon="6.67700450"><ele>67.910278</ele><time>2007-08-25T13:09:16Z</time></trkpt>
<trkpt lat="43.49243720" lon="6.67661380"><ele>67.910278</ele><time>2007-08-25T13:09:25Z</time></trkpt>
<trkpt lat="43.49234090" lon="6.67666190"><ele>67.429688</ele><time>2007-08-25T13:09:32Z</time></trkpt>
<trkpt lat="43.49204570" lon="6.67690760"><ele>65.987671</ele><time>2007-08-25T13:09:48Z</time></trkpt>
<trkpt lat="43.49173650" lon="6.67713670"><ele>66.948975</ele><time>2007-08-25T13:10:00Z</time></trkpt>
<trkpt lat="43.49144640" lon="6.67708520"><ele>67.910278</ele><time>2007-08-25T13:10:12Z</time></trkpt>
<trkpt lat="43.49114210" lon="6.67707910"><ele>67.910278</ele><time>2007-08-25T13:10:22Z</time></trkpt>
<trkpt lat="43.49109100" lon="6.67704270"><ele>68.390869</ele><time>2007-08-25T13:10:27Z</time></trkpt>
<trkpt lat="43.49086760" lon="6.67728150"><ele>67.910278</ele><time>2007-08-25T13:10:42Z</time></trkpt>
<trkpt lat="43.49056320" lon="6.67755040"><ele>68.390869</ele><time>2007-08-25T13:10:58Z</time></trkpt>
<trkpt lat="43.49018700" lon="6.67740750"><ele>67.910278</ele><time>2007-08-25T13:11:11Z</time></trkpt>
<trkpt lat="43.49012680" lon="6.67732770"><ele>66.948975</ele><time>2007-08-25T13:11:13Z</time></trkpt>
<trkpt lat="43.49005640" lon="6.67724640"><ele>66.948975</ele><time>2007-08-25T13:11:15Z</time></trkpt>
<trkpt lat="43.48974210" lon="6.67699770"><ele>66.468262</ele><time>2007-08-25T13:11:24Z</time></trkpt>
<trkpt lat="43.48970720" lon="6.67672360"><ele>66.948975</ele><time>2007-08-25T13:11:31Z</time></trkpt>
<trkpt lat="43.49003290" lon="6.67635690"><ele>68.390869</ele><time>2007-08-25T13:11:46Z</time></trkpt>
<trkpt lat="43.49020360" lon="6.67589010"><ele>69.832886</ele><time>2007-08-25T13:12:01Z</time></trkpt>
<trkpt lat="43.49041510" lon="6.67549760"><ele>72.236206</ele><time>2007-08-25T13:12:16Z</time></trkpt>
<trkpt lat="43.49055060" lon="6.67519810"><ele>74.639526</ele><time>2007-08-25T13:12:29Z</time></trkpt>
<trkpt lat="43.49059120" lon="6.67453850"><ele>76.081421</ele><time>2007-08-25T13:12:47Z</time></trkpt>
<trkpt lat="43.49059520" lon="6.67380050"><ele>77.042847</ele><time>2007-08-25T13:13:03Z</time></trkpt>
<trkpt lat="43.49056190" lon="6.67293150"><ele>78.004028</ele><time>2007-08-25T13:13:23Z</time></trkpt>
<trkpt lat="43.49061940" lon="6.67241440"><ele>78.484741</ele><time>2007-08-25T13:13:37Z</time></trkpt>
<trkpt lat="43.49055480" lon="6.67222580"><ele>78.965454</ele><time>2007-08-25T13:13:43Z</time></trkpt>
<trkpt lat="43.49054780" lon="6.67185800"><ele>78.965454</ele><time>2007-08-25T13:13:54Z</time></trkpt>
<trkpt lat="43.49022440" lon="6.67174620"><ele>78.484741</ele><time>2007-08-25T13:14:06Z</time></trkpt>
<trkpt lat="43.49005020" lon="6.67172590"><ele>78.004028</ele><time>2007-08-25T13:14:11Z</time></trkpt>
<trkpt lat="43.48954100" lon="6.67156200"><ele>80.407471</ele><time>2007-08-25T13:14:27Z</time></trkpt>
<trkpt lat="43.48933030" lon="6.67138600"><ele>81.849365</ele><time>2007-08-25T13:14:35Z</time></trkpt>
<trkpt lat="43.48892200" lon="6.67105060"><ele>83.291382</ele><time>2007-08-25T13:14:52Z</time></trkpt>
<trkpt lat="43.48845590" lon="6.67063280"><ele>82.810791</ele><time>2007-08-25T13:15:09Z</time></trkpt>
<trkpt lat="43.48807210" lon="6.67002800"><ele>82.810791</ele><time>2007-08-25T13:15:26Z</time></trkpt>
<trkpt lat="43.48798930" lon="6.66980350"><ele>83.771973</ele><time>2007-08-25T13:15:31Z</time></trkpt>
<trkpt lat="43.48804660" lon="6.66884300"><ele>81.849365</ele><time>2007-08-25T13:15:45Z</time></trkpt>
<trkpt lat="43.48807470" lon="6.66777400"><ele>81.368774</ele><time>2007-08-25T13:16:04Z</time></trkpt>
<trkpt lat="43.48809440" lon="6.66744660"><ele>80.888184</ele><time>2007-08-25T13:16:10Z</time></trkpt>
<trkpt lat="43.48811070" lon="6.66732370"><ele>79.926636</ele><time>2007-08-25T13:16:12Z</time></trkpt>
<trkpt lat="43.48819960" lon="6.66710990"><ele>79.926636</ele><time>2007-08-25T13:16:16Z</time></trkpt>
<trkpt lat="43.48840000" lon="6.66687950"><ele>80.888184</ele><time>2007-08-25T13:16:22Z</time></trkpt>
<trkpt lat="43.48872780" lon="6.66633980"><ele>80.888184</ele><time>2007-08-25T13:16:33Z</time></trkpt>
<trkpt lat="43.48880690" lon="6.66602460"><ele>79.926636</ele><time>2007-08-25T13:16:38Z</time></trkpt>
<trkpt lat="43.48891260" lon="6.66551240"><ele>77.523438</ele><time>2007-08-25T13:16:45Z</time></trkpt>
<trkpt lat="43.48902120" lon="6.66490100"><ele>75.120239</ele><time>2007-08-25T13:16:52Z</time></trkpt>
<trkpt lat="43.48909340" lon="6.66442250"><ele>73.678223</ele><time>2007-08-25T13:16:57Z</time></trkpt>
<trkpt lat="43.48905170" lon="6.66394830"><ele>72.716919</ele><time>2007-08-25T13:17:02Z</time></trkpt>
<trkpt lat="43.48899860" lon="6.66374700"><ele>71.274902</ele><time>2007-08-25T13:17:04Z</time></trkpt>
<trkpt lat="43.48888460" lon="6.66332670"><ele>72.236206</ele><time>2007-08-25T13:17:09Z</time></trkpt>
<trkpt lat="43.48873360" lon="6.66294700"><ele>70.313477</ele><time>2007-08-25T13:17:18Z</time></trkpt>
<trkpt lat="43.48882430" lon="6.66279630"><ele>68.390869</ele><time>2007-08-25T13:17:26Z</time></trkpt>
<trkpt lat="43.48905420" lon="6.66284270"><ele>65.026367</ele><time>2007-08-25T13:17:34Z</time></trkpt>
<trkpt lat="43.48908840" lon="6.66285790"><ele>65.026367</ele><time>2007-08-25T13:17:35Z</time></trkpt>
<trkpt lat="43.48915950" lon="6.66290400"><ele>64.545654</ele><time>2007-08-25T13:17:37Z</time></trkpt>
<trkpt lat="43.48931220" lon="6.66311970"><ele>63.584351</ele><time>2007-08-25T13:17:42Z</time></trkpt>
<trkpt lat="43.48941980" lon="6.66331020"><ele>63.584351</ele><time>2007-08-25T13:17:46Z</time></trkpt>
<trkpt lat="43.48961350" lon="6.66358530"><ele>62.622925</ele><time>2007-08-25T13:17:53Z</time></trkpt>
<trkpt lat="43.48982510" lon="6.66362080"><ele>60.700317</ele><time>2007-08-25T13:17:58Z</time></trkpt>
<trkpt lat="43.48997620" lon="6.66355850"><ele>61.661743</ele><time>2007-08-25T13:18:08Z</time></trkpt>
<trkpt lat="43.49005240" lon="6.66351350"><ele>59.739136</ele><time>2007-08-25T13:19:08Z</time></trkpt>
<trkpt lat="43.49051850" lon="6.66314180"><ele>58.77771</ele><time>2007-08-25T13:19:25Z</time></trkpt>
<trkpt lat="43.49056220" lon="6.66302690"><ele>60.219727</ele><time>2007-08-25T13:19:28Z</time></trkpt>
<trkpt lat="43.49054020" lon="6.66299130"><ele>60.219727</ele><time>2007-08-25T13:19:30Z</time></trkpt>
<trkpt lat="43.49033870" lon="6.66286900"><ele>58.77771</ele><time>2007-08-25T13:19:38Z</time></trkpt>
<trkpt lat="43.49021290" lon="6.66272360"><ele>58.77771</ele><time>2007-08-25T13:19:42Z</time></trkpt>
<trkpt lat="43.49012580" lon="6.66208140"><ele>59.739136</ele><time>2007-08-25T13:19:55Z</time></trkpt>
<trkpt lat="43.49038970" lon="6.66170410"><ele>60.219727</ele><time>2007-08-25T13:20:06Z</time></trkpt>
<trkpt lat="43.49053940" lon="6.66126970"><ele>61.661743</ele><time>2007-08-25T13:20:19Z</time></trkpt>
<trkpt lat="43.49083570" lon="6.66074260"><ele>59.739136</ele><time>2007-08-25T13:20:32Z</time></trkpt>
<trkpt lat="43.49092990" lon="6.66037320"><ele>59.739136</ele><time>2007-08-25T13:20:43Z</time></trkpt>
<trkpt lat="43.49091470" lon="6.66033810"><ele>60.219727</ele><time>2007-08-25T13:20:57Z</time></trkpt>
<trkpt lat="43.49091650" lon="6.66034880"><ele>60.219727</ele><time>2007-08-25T13:21:13Z</time></trkpt>
<trkpt lat="43.49091220" lon="6.66036240"><ele>59.739136</ele><time>2007-08-25T13:21:33Z</time></trkpt>
<trkpt lat="43.49087900" lon="6.66027600"><ele>61.661743</ele><time>2007-08-25T13:21:41Z</time></trkpt>
<trkpt lat="43.49086890" lon="6.66019950"><ele>61.661743</ele><time>2007-08-25T13:21:47Z</time></trkpt>
<trkpt lat="43.49087700" lon="6.66014300"><ele>62.142334</ele><time>2007-08-25T13:21:51Z</time></trkpt>
<trkpt lat="43.49093140" lon="6.66006550"><ele>62.622925</ele><time>2007-08-25T13:21:58Z</time></trkpt>
<trkpt lat="43.49106890" lon="6.66006130"><ele>63.584351</ele><time>2007-08-25T13:22:10Z</time></trkpt>
<trkpt lat="43.49131330" lon="6.66021990"><ele>64.065063</ele><time>2007-08-25T13:22:24Z</time></trkpt>
<trkpt lat="43.49151540" lon="6.66047020"><ele>65.026367</ele><time>2007-08-25T13:22:36Z</time></trkpt>
<trkpt lat="43.49179540" lon="6.66045400"><ele>65.50708</ele><time>2007-08-25T13:22:49Z</time></trkpt>
<trkpt lat="43.49192960" lon="6.66040230"><ele>68.390869</ele><time>2007-08-25T13:22:56Z</time></trkpt>
<trkpt lat="43.49201860" lon="6.66026530"><ele>69.832886</ele><time>2007-08-25T13:23:01Z</time></trkpt>
<trkpt lat="43.49226910" lon="6.66007020"><ele>71.755493</ele><time>2007-08-25T13:23:19Z</time></trkpt>
<trkpt lat="43.49252420" lon="6.66017690"><ele>73.197632</ele><time>2007-08-25T13:23:34Z</time></trkpt>
<trkpt lat="43.49260830" lon="6.66020120"><ele>73.678223</ele><time>2007-08-25T13:23:52Z</time></trkpt>
<trkpt lat="43.49277490" lon="6.66026550"><ele>75.120239</ele><time>2007-08-25T13:24:15Z</time></trkpt>
<trkpt lat="43.49283050" lon="6.66030070"><ele>75.120239</ele><time>2007-08-25T13:24:19Z</time></trkpt>
<trkpt lat="43.49288120" lon="6.66034580"><ele>75.60083</ele><time>2007-08-25T13:24:23Z</time></trkpt>
<trkpt lat="43.49312970" lon="6.66046010"><ele>77.523438</ele><time>2007-08-25T13:24:41Z</time></trkpt>
<trkpt lat="43.49348440" lon="6.66043080"><ele>78.484741</ele><time>2007-08-25T13:25:01Z</time></trkpt>
<trkpt lat="43.49372510" lon="6.66068050"><ele>77.042847</ele><time>2007-08-25T13:25:10Z</time></trkpt>
<trkpt lat="43.49384590" lon="6.66098140"><ele>76.562134</ele><time>2007-08-25T13:25:15Z</time></trkpt>
<trkpt lat="43.49389330" lon="6.66159670"><ele>78.004028</ele><time>2007-08-25T13:25:29Z</time></trkpt>
<trkpt lat="43.49395660" lon="6.66221110"><ele>78.004028</ele><time>2007-08-25T13:25:44Z</time></trkpt>
<trkpt lat="43.49400580" lon="6.66264210"><ele>78.484741</ele><time>2007-08-25T13:25:54Z</time></trkpt>
<trkpt lat="43.49409650" lon="6.66306270"><ele>81.368774</ele><time>2007-08-25T13:26:07Z</time></trkpt>
<trkpt lat="43.49410890" lon="6.66313370"><ele>82.330078</ele><time>2007-08-25T13:26:20Z</time></trkpt>
<trkpt lat="43.49410410" lon="6.66314150"><ele>81.849365</ele><time>2007-08-25T13:27:33Z</time></trkpt>
<trkpt lat="43.49410320" lon="6.66312760"><ele>81.849365</ele><time>2007-08-25T13:28:19Z</time></trkpt>
<trkpt lat="43.49410740" lon="6.66312760"><ele>81.849365</ele><time>2007-08-25T13:28:49Z</time></trkpt>
<trkpt lat="43.49412960" lon="6.66312180"><ele>81.849365</ele><time>2007-08-25T13:29:29Z</time></trkpt>
<trkpt lat="43.49413960" lon="6.66312480"><ele>81.368774</ele><time>2007-08-25T13:29:46Z</time></trkpt>
<trkpt lat="43.49419370" lon="6.66320240"><ele>81.368774</ele><time>2007-08-25T13:29:51Z</time></trkpt>
<trkpt lat="43.49438150" lon="6.66360210"><ele>81.368774</ele><time>2007-08-25T13:30:08Z</time></trkpt>
<trkpt lat="43.49444880" lon="6.66414290"><ele>82.330078</ele><time>2007-08-25T13:30:23Z</time></trkpt>
<trkpt lat="43.49439890" lon="6.66479870"><ele>80.888184</ele><time>2007-08-25T13:30:37Z</time></trkpt>
<trkpt lat="43.49452430" lon="6.66528910"><ele>82.330078</ele><time>2007-08-25T13:30:50Z</time></trkpt>
<trkpt lat="43.49474080" lon="6.66538400"><ele>85.213989</ele><time>2007-08-25T13:31:04Z</time></trkpt>
<trkpt lat="43.49502690" lon="6.66546450"><ele>86.175293</ele><time>2007-08-25T13:31:19Z</time></trkpt>
<trkpt lat="43.49543030" lon="6.66572130"><ele>86.175293</ele><time>2007-08-25T13:31:34Z</time></trkpt>
<trkpt lat="43.49563590" lon="6.66599260"><ele>84.733398</ele><time>2007-08-25T13:31:43Z</time></trkpt>
<trkpt lat="43.49569360" lon="6.66617130"><ele>82.810791</ele><time>2007-08-25T13:31:46Z</time></trkpt>
<trkpt lat="43.49574060" lon="6.66629820"><ele>82.330078</ele><time>2007-08-25T13:31:48Z</time></trkpt>
<trkpt lat="43.49583170" lon="6.66648990"><ele>78.965454</ele><time>2007-08-25T13:31:51Z</time></trkpt>
<trkpt lat="43.49589720" lon="6.66661100"><ele>79.446045</ele><time>2007-08-25T13:31:53Z</time></trkpt>
<trkpt lat="43.49596900" lon="6.66691270"><ele>78.484741</ele><time>2007-08-25T13:31:57Z</time></trkpt>
<trkpt lat="43.49598040" lon="6.66707170"><ele>77.523438</ele><time>2007-08-25T13:31:59Z</time></trkpt>
<trkpt lat="43.49610110" lon="6.66717780"><ele>76.081421</ele><time>2007-08-25T13:32:05Z</time></trkpt>
<trkpt lat="43.49626870" lon="6.66698240"><ele>72.236206</ele><time>2007-08-25T13:32:11Z</time></trkpt>
<trkpt lat="43.49633390" lon="6.66691090"><ele>71.274902</ele><time>2007-08-25T13:32:13Z</time></trkpt>
<trkpt lat="43.49640630" lon="6.66684320"><ele>69.352295</ele><time>2007-08-25T13:32:15Z</time></trkpt>
<trkpt lat="43.49655530" lon="6.66669970"><ele>67.910278</ele><time>2007-08-25T13:32:19Z</time></trkpt>
<trkpt lat="43.49669080" lon="6.66656450"><ele>66.468262</ele><time>2007-08-25T13:32:22Z</time></trkpt>
<trkpt lat="43.49687410" lon="6.66617860"><ele>65.026367</ele><time>2007-08-25T13:32:27Z</time></trkpt>
<trkpt lat="43.49725010" lon="6.66587920"><ele>64.065063</ele><time>2007-08-25T13:32:35Z</time></trkpt>
<trkpt lat="43.49729310" lon="6.66582370"><ele>64.545654</ele><time>2007-08-25T13:32:36Z</time></trkpt>
<trkpt lat="43.49744420" lon="6.66553310"><ele>63.584351</ele><time>2007-08-25T13:32:41Z</time></trkpt>
<trkpt lat="43.49761990" lon="6.66525700"><ele>60.219727</ele><time>2007-08-25T13:32:46Z</time></trkpt>
<trkpt lat="43.49782000" lon="6.66502680"><ele>58.297119</ele><time>2007-08-25T13:32:52Z</time></trkpt>
<trkpt lat="43.49799570" lon="6.66495770"><ele>55.893799</ele><time>2007-08-25T13:32:56Z</time></trkpt>
<trkpt lat="43.49807690" lon="6.66489960"><ele>58.297119</ele><time>2007-08-25T13:32:59Z</time></trkpt>
<trkpt lat="43.49816540" lon="6.66483690"><ele>58.297119</ele><time>2007-08-25T13:33:11Z</time></trkpt>
<trkpt lat="43.49831830" lon="6.66479550"><ele>58.77771</ele><time>2007-08-25T13:33:26Z</time></trkpt>
<trkpt lat="43.49834160" lon="6.66479240"><ele>58.297119</ele><time>2007-08-25T13:33:28Z</time></trkpt>
<trkpt lat="43.49862170" lon="6.66481830"><ele>60.219727</ele><time>2007-08-25T13:33:45Z</time></trkpt>
<trkpt lat="43.49885990" lon="6.66504570"><ele>62.622925</ele><time>2007-08-25T13:33:59Z</time></trkpt>
<trkpt lat="43.49886830" lon="6.66506940"><ele>62.622925</ele><time>2007-08-25T13:34:00Z</time></trkpt>
<trkpt lat="43.49892680" lon="6.66525600"><ele>62.622925</ele><time>2007-08-25T13:34:08Z</time></trkpt>
<trkpt lat="43.49899590" lon="6.66566120"><ele>65.026367</ele><time>2007-08-25T13:34:24Z</time></trkpt>
<trkpt lat="43.49900320" lon="6.66627130"><ele>65.026367</ele><time>2007-08-25T13:34:43Z</time></trkpt>
<trkpt lat="43.49884250" lon="6.66688840"><ele>65.50708</ele><time>2007-08-25T13:34:59Z</time></trkpt>
<trkpt lat="43.49874250" lon="6.66746980"><ele>66.948975</ele><time>2007-08-25T13:35:16Z</time></trkpt>
<trkpt lat="43.49852230" lon="6.66809040"><ele>65.987671</ele><time>2007-08-25T13:35:31Z</time></trkpt>
<trkpt lat="43.49831870" lon="6.66853300"><ele>67.910278</ele><time>2007-08-25T13:35:45Z</time></trkpt>
<trkpt lat="43.49810320" lon="6.66879380"><ele>69.832886</ele><time>2007-08-25T13:36:00Z</time></trkpt>
<trkpt lat="43.49808640" lon="6.66922290"><ele>72.236206</ele><time>2007-08-25T13:36:16Z</time></trkpt>
<trkpt lat="43.49816080" lon="6.66956800"><ele>75.120239</ele><time>2007-08-25T13:36:30Z</time></trkpt>
<trkpt lat="43.49814690" lon="6.67005640"><ele>77.523438</ele><time>2007-08-25T13:36:48Z</time></trkpt>
<trkpt lat="43.49799710" lon="6.67052740"><ele>78.965454</ele><time>2007-08-25T13:37:06Z</time></trkpt>
<trkpt lat="43.49775580" lon="6.67075340"><ele>80.888184</ele><time>2007-08-25T13:37:23Z</time></trkpt>
<trkpt lat="43.49744960" lon="6.67075260"><ele>83.771973</ele><time>2007-08-25T13:37:40Z</time></trkpt>
<trkpt lat="43.49735620" lon="6.67068800"><ele>83.771973</ele><time>2007-08-25T13:37:46Z</time></trkpt>
<trkpt lat="43.49731440" lon="6.67067590"><ele>84.252686</ele><time>2007-08-25T13:38:02Z</time></trkpt>
<trkpt lat="43.49731270" lon="6.67066870"><ele>83.291382</ele><time>2007-08-25T13:38:51Z</time></trkpt>
<trkpt lat="43.49731900" lon="6.67069590"><ele>83.771973</ele><time>2007-08-25T13:40:03Z</time></trkpt>
<trkpt lat="43.49729020" lon="6.67074410"><ele>82.810791</ele><time>2007-08-25T13:40:06Z</time></trkpt>
<trkpt lat="43.49735370" lon="6.67106710"><ele>82.810791</ele><time>2007-08-25T13:40:19Z</time></trkpt>
<trkpt lat="43.49746660" lon="6.67161930"><ele>80.888184</ele><time>2007-08-25T13:40:31Z</time></trkpt>
<trkpt lat="43.49777750" lon="6.67229690"><ele>81.849365</ele><time>2007-08-25T13:40:46Z</time></trkpt>
<trkpt lat="43.49783970" lon="6.67245420"><ele>80.888184</ele><time>2007-08-25T13:40:49Z</time></trkpt>
<trkpt lat="43.49813230" lon="6.67287850"><ele>82.330078</ele><time>2007-08-25T13:41:03Z</time></trkpt>
<trkpt lat="43.49819920" lon="6.67306640"><ele>81.849365</ele><time>2007-08-25T13:41:09Z</time></trkpt>
<trkpt lat="43.49842300" lon="6.67344730"><ele>81.368774</ele><time>2007-08-25T13:41:19Z</time></trkpt>
<trkpt lat="43.49878190" lon="6.67420410"><ele>81.368774</ele><time>2007-08-25T13:41:36Z</time></trkpt>
<trkpt lat="43.49917330" lon="6.67444320"><ele>81.849365</ele><time>2007-08-25T13:41:50Z</time></trkpt>
<trkpt lat="43.49941590" lon="6.67448380"><ele>84.252686</ele><time>2007-08-25T13:42:02Z</time></trkpt>
<trkpt lat="43.49971810" lon="6.67464750"><ele>86.656006</ele><time>2007-08-25T13:42:19Z</time></trkpt>
<trkpt lat="43.49986670" lon="6.67481590"><ele>87.136597</ele><time>2007-08-25T13:42:29Z</time></trkpt>
<trkpt lat="43.50012370" lon="6.67477030"><ele>87.136597</ele><time>2007-08-25T13:42:42Z</time></trkpt>
<trkpt lat="43.50037000" lon="6.67488890"><ele>88.098022</ele><time>2007-08-25T13:42:56Z</time></trkpt>
<trkpt lat="43.50058970" lon="6.67502980"><ele>89.539917</ele><time>2007-08-25T13:43:09Z</time></trkpt>
<trkpt lat="43.50091960" lon="6.67522930"><ele>91.943237</ele><time>2007-08-25T13:43:26Z</time></trkpt>
<trkpt lat="43.50108620" lon="6.67529850"><ele>92.42395</ele><time>2007-08-25T13:43:35Z</time></trkpt>
<trkpt lat="43.50117390" lon="6.67516760"><ele>92.904541</ele><time>2007-08-25T13:43:43Z</time></trkpt>
<trkpt lat="43.50128730" lon="6.67479460"><ele>92.42395</ele><time>2007-08-25T13:43:56Z</time></trkpt>
<trkpt lat="43.50149220" lon="6.67456980"><ele>91.943237</ele><time>2007-08-25T13:44:08Z</time></trkpt>
<trkpt lat="43.50160380" lon="6.67454710"><ele>89.539917</ele><time>2007-08-25T13:44:11Z</time></trkpt>
<trkpt lat="43.50164850" lon="6.67454280"><ele>89.059326</ele><time>2007-08-25T13:44:12Z</time></trkpt>
<trkpt lat="43.50178780" lon="6.67458740"><ele>87.617188</ele><time>2007-08-25T13:44:15Z</time></trkpt>
<trkpt lat="43.50188020" lon="6.67464940"><ele>87.136597</ele><time>2007-08-25T13:44:17Z</time></trkpt>
<trkpt lat="43.50228500" lon="6.67457710"><ele>83.291382</ele><time>2007-08-25T13:44:27Z</time></trkpt>
<trkpt lat="43.50230240" lon="6.67453300"><ele>83.291382</ele><time>2007-08-25T13:44:28Z</time></trkpt>
<trkpt lat="43.50233330" lon="6.67443890"><ele>81.849365</ele><time>2007-08-25T13:44:30Z</time></trkpt>
<trkpt lat="43.50241010" lon="6.67429140"><ele>79.926636</ele><time>2007-08-25T13:44:33Z</time></trkpt>
<trkpt lat="43.50253800" lon="6.67417720"><ele>77.523438</ele><time>2007-08-25T13:44:36Z</time></trkpt>
<trkpt lat="43.50288250" lon="6.67394470"><ele>76.081421</ele><time>2007-08-25T13:44:43Z</time></trkpt>
<trkpt lat="43.50309910" lon="6.67361090"><ele>73.197632</ele><time>2007-08-25T13:44:48Z</time></trkpt>
<trkpt lat="43.50326780" lon="6.67324840"><ele>70.313477</ele><time>2007-08-25T13:44:52Z</time></trkpt>
<trkpt lat="43.50346540" lon="6.67263610"><ele>69.352295</ele><time>2007-08-25T13:44:58Z</time></trkpt>
<trkpt lat="43.50367510" lon="6.67188390"><ele>70.794189</ele><time>2007-08-25T13:45:07Z</time></trkpt>
<trkpt lat="43.50382170" lon="6.67149610"><ele>69.352295</ele><time>2007-08-25T13:45:12Z</time></trkpt>
<trkpt lat="43.50387050" lon="6.67125200"><ele>69.352295</ele><time>2007-08-25T13:45:15Z</time></trkpt>
<trkpt lat="43.50401020" lon="6.67106060"><ele>67.910278</ele><time>2007-08-25T13:45:19Z</time></trkpt>
<trkpt lat="43.50448220" lon="6.67083030"><ele>69.832886</ele><time>2007-08-25T13:45:33Z</time></trkpt>
<trkpt lat="43.50471200" lon="6.67062360"><ele>70.313477</ele><time>2007-08-25T13:45:47Z</time></trkpt>
<trkpt lat="43.50479180" lon="6.67053960"><ele>70.313477</ele><time>2007-08-25T13:45:58Z</time></trkpt>
<trkpt lat="43.50480270" lon="6.67056620"><ele>70.794189</ele><time>2007-08-25T13:46:43Z</time></trkpt>
<trkpt lat="43.50482660" lon="6.67058110"><ele>71.274902</ele><time>2007-08-25T13:46:55Z</time></trkpt>
<trkpt lat="43.50485120" lon="6.67076870"><ele>71.755493</ele><time>2007-08-25T13:47:03Z</time></trkpt>
<trkpt lat="43.50493950" lon="6.67118040"><ele>70.313477</ele><time>2007-08-25T13:47:14Z</time></trkpt>
<trkpt lat="43.50499550" lon="6.67143050"><ele>70.794189</ele><time>2007-08-25T13:47:23Z</time></trkpt>
<trkpt lat="43.50498310" lon="6.67146570"><ele>70.794189</ele><time>2007-08-25T13:47:25Z</time></trkpt>
<trkpt lat="43.50498770" lon="6.67136970"><ele>70.794189</ele><time>2007-08-25T13:47:33Z</time></trkpt>
<trkpt lat="43.50495100" lon="6.67125640"><ele>70.794189</ele><time>2007-08-25T13:47:36Z</time></trkpt>
<trkpt lat="43.50482280" lon="6.67068270"><ele>70.794189</ele><time>2007-08-25T13:47:49Z</time></trkpt>
<trkpt lat="43.50505050" lon="6.67016420"><ele>70.794189</ele><time>2007-08-25T13:48:03Z</time></trkpt>
<trkpt lat="43.50537860" lon="6.66985240"><ele>70.313477</ele><time>2007-08-25T13:48:16Z</time></trkpt>
<trkpt lat="43.50551560" lon="6.66969950"><ele>69.832886</ele><time>2007-08-25T13:48:22Z</time></trkpt>
<trkpt lat="43.50548540" lon="6.66980100"><ele>69.352295</ele><time>2007-08-25T13:48:29Z</time></trkpt>
<trkpt lat="43.50500000" lon="6.67023410"><ele>69.352295</ele><time>2007-08-25T13:48:45Z</time></trkpt>
<trkpt lat="43.50483370" lon="6.67073980"><ele>70.313477</ele><time>2007-08-25T13:48:59Z</time></trkpt>
<trkpt lat="43.50490270" lon="6.67082310"><ele>71.274902</ele><time>2007-08-25T13:49:03Z</time></trkpt>
<trkpt lat="43.50497010" lon="6.67078120"><ele>71.755493</ele><time>2007-08-25T13:49:07Z</time></trkpt>
<trkpt lat="43.50509420" lon="6.67060460"><ele>74.639526</ele><time>2007-08-25T13:49:15Z</time></trkpt>
<trkpt lat="43.50515330" lon="6.67060300"><ele>75.120239</ele><time>2007-08-25T13:49:19Z</time></trkpt>
<trkpt lat="43.50539050" lon="6.67065200"><ele>77.523438</ele><time>2007-08-25T13:49:35Z</time></trkpt>
<trkpt lat="43.50543730" lon="6.67066130"><ele>76.081421</ele><time>2007-08-25T13:49:38Z</time></trkpt>
<trkpt lat="43.50549360" lon="6.67074700"><ele>77.042847</ele><time>2007-08-25T13:49:43Z</time></trkpt>
<trkpt lat="43.50551440" lon="6.67076450"><ele>77.523438</ele><time>2007-08-25T13:50:06Z</time></trkpt>
<trkpt lat="43.50565030" lon="6.67089850"><ele>76.562134</ele><time>2007-08-25T13:50:26Z</time></trkpt>
<trkpt lat="43.50567230" lon="6.67095200"><ele>77.523438</ele><time>2007-08-25T13:50:28Z</time></trkpt>
<trkpt lat="43.50583520" lon="6.67111120"><ele>80.888184</ele><time>2007-08-25T13:50:39Z</time></trkpt>
<trkpt lat="43.50594860" lon="6.67107650"><ele>81.368774</ele><time>2007-08-25T13:50:46Z</time></trkpt>
<trkpt lat="43.50599320" lon="6.67112660"><ele>81.849365</ele><time>2007-08-25T13:50:57Z</time></trkpt>
<trkpt lat="43.50600830" lon="6.67109560"><ele>82.330078</ele><time>2007-08-25T13:51:12Z</time></trkpt>
<trkpt lat="43.50605170" lon="6.67106690"><ele>81.368774</ele><time>2007-08-25T13:51:28Z</time></trkpt>
<trkpt lat="43.50603150" lon="6.67115500"><ele>80.888184</ele><time>2007-08-25T13:51:36Z</time></trkpt>
<trkpt lat="43.50603710" lon="6.67132040"><ele>84.252686</ele><time>2007-08-25T13:51:51Z</time></trkpt>
<trkpt lat="43.50607450" lon="6.67142500"><ele>87.136597</ele><time>2007-08-25T13:52:06Z</time></trkpt>
<trkpt lat="43.50613950" lon="6.67144550"><ele>90.501343</ele><time>2007-08-25T13:52:16Z</time></trkpt>
<trkpt lat="43.50619270" lon="6.67155360"><ele>91.462524</ele><time>2007-08-25T13:52:31Z</time></trkpt>
<trkpt lat="43.50621170" lon="6.67157980"><ele>90.981934</ele><time>2007-08-25T13:52:43Z</time></trkpt>
<trkpt lat="43.50628000" lon="6.67173420"><ele>90.981934</ele><time>2007-08-25T13:52:57Z</time></trkpt>
<trkpt lat="43.50629730" lon="6.67176690"><ele>90.981934</ele><time>2007-08-25T13:53:00Z</time></trkpt>
<trkpt lat="43.50639970" lon="6.67191150"><ele>91.462524</ele><time>2007-08-25T13:53:15Z</time></trkpt>
<trkpt lat="43.50644850" lon="6.67204610"><ele>91.943237</ele><time>2007-08-25T13:53:27Z</time></trkpt>
<trkpt lat="43.50657280" lon="6.67224140"><ele>92.42395</ele><time>2007-08-25T13:53:44Z</time></trkpt>
<trkpt lat="43.50665170" lon="6.67240820"><ele>93.385132</ele><time>2007-08-25T13:53:58Z</time></trkpt>
<trkpt lat="43.50671160" lon="6.67247400"><ele>93.865845</ele><time>2007-08-25T13:54:06Z</time></trkpt>
<trkpt lat="43.50686420" lon="6.67263650"><ele>94.346558</ele><time>2007-08-25T13:54:24Z</time></trkpt>
<trkpt lat="43.50693590" lon="6.67269370"><ele>94.346558</ele><time>2007-08-25T13:54:32Z</time></trkpt>
<trkpt lat="43.50703700" lon="6.67284960"><ele>94.827148</ele><time>2007-08-25T13:54:48Z</time></trkpt>
<trkpt lat="43.50713460" lon="6.67299000"><ele>94.827148</ele><time>2007-08-25T13:55:02Z</time></trkpt>
<trkpt lat="43.50720470" lon="6.67312820"><ele>95.307739</ele><time>2007-08-25T13:55:16Z</time></trkpt>
<trkpt lat="43.50732340" lon="6.67326480"><ele>94.827148</ele><time>2007-08-25T13:55:33Z</time></trkpt>
<trkpt lat="43.50741910" lon="6.67339220"><ele>94.827148</ele><time>2007-08-25T13:55:45Z</time></trkpt>
<trkpt lat="43.50752710" lon="6.67350680"><ele>94.346558</ele><time>2007-08-25T13:55:59Z</time></trkpt>
<trkpt lat="43.50755940" lon="6.67356450"><ele>93.385132</ele><time>2007-08-25T13:56:02Z</time></trkpt>
<trkpt lat="43.50769790" lon="6.67391210"><ele>93.865845</ele><time>2007-08-25T13:56:18Z</time></trkpt>
<trkpt lat="43.50771930" lon="6.67409340"><ele>92.42395</ele><time>2007-08-25T13:56:24Z</time></trkpt>
<trkpt lat="43.50776520" lon="6.67432280"><ele>92.42395</ele><time>2007-08-25T13:56:32Z</time></trkpt>
<trkpt lat="43.50771200" lon="6.67446760"><ele>90.501343</ele><time>2007-08-25T13:56:44Z</time></trkpt>
<trkpt lat="43.50767360" lon="6.67448680"><ele>91.462524</ele><time>2007-08-25T13:57:38Z</time></trkpt>
<trkpt lat="43.50761660" lon="6.67448600"><ele>90.981934</ele><time>2007-08-25T13:57:42Z</time></trkpt>
<trkpt lat="43.50752520" lon="6.67453560"><ele>90.981934</ele><time>2007-08-25T13:57:50Z</time></trkpt>
<trkpt lat="43.50728770" lon="6.67465250"><ele>88.098022</ele><time>2007-08-25T13:58:04Z</time></trkpt>
<trkpt lat="43.50703220" lon="6.67487490"><ele>85.69458</ele><time>2007-08-25T13:58:18Z</time></trkpt>
<trkpt lat="43.50676450" lon="6.67502980"><ele>83.771973</ele><time>2007-08-25T13:58:31Z</time></trkpt>
<trkpt lat="43.50665000" lon="6.67516650"><ele>83.291382</ele><time>2007-08-25T13:58:42Z</time></trkpt>
<trkpt lat="43.50666650" lon="6.67516410"><ele>82.810791</ele><time>2007-08-25T13:59:00Z</time></trkpt>
<trkpt lat="43.50675770" lon="6.67504280"><ele>83.771973</ele><time>2007-08-25T13:59:10Z</time></trkpt>
<trkpt lat="43.50679620" lon="6.67500180"><ele>83.771973</ele><time>2007-08-25T13:59:14Z</time></trkpt>
<trkpt lat="43.50697410" lon="6.67492100"><ele>84.733398</ele><time>2007-08-25T13:59:30Z</time></trkpt>
<trkpt lat="43.50701660" lon="6.67488950"><ele>85.69458</ele><time>2007-08-25T13:59:35Z</time></trkpt>
<trkpt lat="43.50715760" lon="6.67474020"><ele>88.098022</ele><time>2007-08-25T13:59:54Z</time></trkpt>
<trkpt lat="43.50730730" lon="6.67464030"><ele>89.539917</ele><time>2007-08-25T14:00:11Z</time></trkpt>
<trkpt lat="43.50746380" lon="6.67455700"><ele>90.981934</ele><time>2007-08-25T14:00:28Z</time></trkpt>
<trkpt lat="43.50757650" lon="6.67456570"><ele>91.462524</ele><time>2007-08-25T14:00:42Z</time></trkpt>
<trkpt lat="43.50758240" lon="6.67458740"><ele>91.943237</ele><time>2007-08-25T14:00:59Z</time></trkpt>
<trkpt lat="43.50760500" lon="6.67475840"><ele>93.865845</ele><time>2007-08-25T14:01:14Z</time></trkpt>
<trkpt lat="43.50763680" lon="6.67492720"><ele>96.749878</ele><time>2007-08-25T14:01:29Z</time></trkpt>
<trkpt lat="43.50763090" lon="6.67497490"><ele>98.191895</ele><time>2007-08-25T14:01:33Z</time></trkpt>
<trkpt lat="43.50757960" lon="6.67524840"><ele>99.153076</ele><time>2007-08-25T14:01:53Z</time></trkpt>
<trkpt lat="43.50753720" lon="6.67547690"><ele>100.595093</ele><time>2007-08-25T14:02:10Z</time></trkpt>
<trkpt lat="43.50752390" lon="6.67549120"><ele>100.595093</ele><time>2007-08-25T14:02:24Z</time></trkpt>
<trkpt lat="43.50751390" lon="6.67551470"><ele>102.037109</ele><time>2007-08-25T14:02:35Z</time></trkpt>
<trkpt lat="43.50746120" lon="6.67574060"><ele>102.5177</ele><time>2007-08-25T14:02:53Z</time></trkpt>
<trkpt lat="43.50737120" lon="6.67604730"><ele>102.5177</ele><time>2007-08-25T14:03:09Z</time></trkpt>
<trkpt lat="43.50736590" lon="6.67649040"><ele>102.037109</ele><time>2007-08-25T14:03:23Z</time></trkpt>
<trkpt lat="43.50725690" lon="6.67676040"><ele>103.959717</ele><time>2007-08-25T14:03:35Z</time></trkpt>
<trkpt lat="43.50723560" lon="6.67683120"><ele>104.921021</ele><time>2007-08-25T14:03:39Z</time></trkpt>
<trkpt lat="43.50720130" lon="6.67693030"><ele>101.075684</ele><time>2007-08-25T14:03:43Z</time></trkpt>
<trkpt lat="43.50717690" lon="6.67700900"><ele>99.153076</ele><time>2007-08-25T14:03:45Z</time></trkpt>
<trkpt lat="43.50711670" lon="6.67716600"><ele>97.711182</ele><time>2007-08-25T14:03:48Z</time></trkpt>
<trkpt lat="43.50703570" lon="6.67733280"><ele>98.672485</ele><time>2007-08-25T14:03:52Z</time></trkpt>
<trkpt lat="43.50699390" lon="6.67746340"><ele>100.595093</ele><time>2007-08-25T14:04:01Z</time></trkpt>
<trkpt lat="43.50691340" lon="6.67763060"><ele>102.5177</ele><time>2007-08-25T14:04:19Z</time></trkpt>
<trkpt lat="43.50686250" lon="6.67766190"><ele>103.959717</ele><time>2007-08-25T14:05:51Z</time></trkpt>
<trkpt lat="43.50686700" lon="6.67766140"><ele>103.479004</ele><time>2007-08-25T14:06:22Z</time></trkpt>
<trkpt lat="43.50686330" lon="6.67767160"><ele>103.479004</ele><time>2007-08-25T14:07:59Z</time></trkpt>
<trkpt lat="43.50680440" lon="6.67777450"><ele>104.44043</ele><time>2007-08-25T14:09:58Z</time></trkpt>
<trkpt lat="43.50675400" lon="6.67795180"><ele>106.843628</ele><time>2007-08-25T14:10:13Z</time></trkpt>
<trkpt lat="43.50671850" lon="6.67811970"><ele>106.843628</ele><time>2007-08-25T14:10:26Z</time></trkpt>
<trkpt lat="43.50670800" lon="6.67821150"><ele>107.324341</ele><time>2007-08-25T14:10:33Z</time></trkpt>
<trkpt lat="43.50665600" lon="6.67835790"><ele>106.363037</ele><time>2007-08-25T14:10:40Z</time></trkpt>
<trkpt lat="43.50652100" lon="6.67870760"><ele>106.363037</ele><time>2007-08-25T14:10:51Z</time></trkpt>
<trkpt lat="43.50650390" lon="6.67875170"><ele>107.324341</ele><time>2007-08-25T14:10:53Z</time></trkpt>
<trkpt lat="43.50635500" lon="6.67901950"><ele>107.805054</ele><time>2007-08-25T14:11:08Z</time></trkpt>
<trkpt lat="43.50622760" lon="6.67944590"><ele>107.805054</ele><time>2007-08-25T14:11:26Z</time></trkpt>
<trkpt lat="43.50614350" lon="6.67972040"><ele>106.843628</ele><time>2007-08-25T14:11:37Z</time></trkpt>
<trkpt lat="43.50613900" lon="6.67979230"><ele>107.805054</ele><time>2007-08-25T14:11:46Z</time></trkpt>
<trkpt lat="43.50614760" lon="6.67978620"><ele>107.324341</ele><time>2007-08-25T14:12:28Z</time></trkpt>
<trkpt lat="43.50610830" lon="6.67990980"><ele>106.363037</ele><time>2007-08-25T14:12:33Z</time></trkpt>
<trkpt lat="43.50601470" lon="6.68026630"><ele>102.5177</ele><time>2007-08-25T14:12:40Z</time></trkpt>
<trkpt lat="43.50596480" lon="6.68044040"><ele>99.153076</ele><time>2007-08-25T14:12:42Z</time></trkpt>
<trkpt lat="43.50586680" lon="6.68076880"><ele>95.307739</ele><time>2007-08-25T14:12:45Z</time></trkpt>
<trkpt lat="43.50580140" lon="6.68101230"><ele>94.346558</ele><time>2007-08-25T14:12:47Z</time></trkpt>
<trkpt lat="43.50543940" lon="6.68219800"><ele>93.865845</ele><time>2007-08-25T14:12:58Z</time></trkpt>
<trkpt lat="43.50538860" lon="6.68236480"><ele>95.307739</ele><time>2007-08-25T14:13:00Z</time></trkpt>
<trkpt lat="43.50534360" lon="6.68250880"><ele>96.749878</ele><time>2007-08-25T14:13:02Z</time></trkpt>
<trkpt lat="43.50519240" lon="6.68301130"><ele>98.672485</ele><time>2007-08-25T14:13:11Z</time></trkpt>
<trkpt lat="43.50501780" lon="6.68364780"><ele>97.711182</ele><time>2007-08-25T14:13:28Z</time></trkpt>
<trkpt lat="43.50482240" lon="6.68431420"><ele>94.346558</ele><time>2007-08-25T14:13:39Z</time></trkpt>
<trkpt lat="43.50460990" lon="6.68509900"><ele>90.501343</ele><time>2007-08-25T14:13:49Z</time></trkpt>
<trkpt lat="43.50444440" lon="6.68561950"><ele>93.385132</ele><time>2007-08-25T14:13:56Z</time></trkpt>
<trkpt lat="43.50426770" lon="6.68619920"><ele>95.788452</ele><time>2007-08-25T14:14:09Z</time></trkpt>
<trkpt lat="43.50411170" lon="6.68673280"><ele>97.230469</ele><time>2007-08-25T14:14:24Z</time></trkpt>
<trkpt lat="43.50390970" lon="6.68744430"><ele>93.865845</ele><time>2007-08-25T14:14:36Z</time></trkpt>
<trkpt lat="43.50381280" lon="6.68778000"><ele>90.501343</ele><time>2007-08-25T14:14:40Z</time></trkpt>
<trkpt lat="43.50354770" lon="6.68871490"><ele>90.02063</ele><time>2007-08-25T14:14:51Z</time></trkpt>
<trkpt lat="43.50357950" lon="6.68886030"><ele>92.42395</ele><time>2007-08-25T14:14:55Z</time></trkpt>
<trkpt lat="43.50360400" lon="6.68885480"><ele>92.42395</ele><time>2007-08-25T14:14:56Z</time></trkpt>
<trkpt lat="43.50368860" lon="6.68884780"><ele>92.42395</ele><time>2007-08-25T14:14:59Z</time></trkpt>
<trkpt lat="43.50375330" lon="6.68895610"><ele>93.385132</ele><time>2007-08-25T14:15:03Z</time></trkpt>
<trkpt lat="43.50378410" lon="6.68939900"><ele>92.904541</ele><time>2007-08-25T14:15:17Z</time></trkpt>
<trkpt lat="43.50368230" lon="6.68964160"><ele>91.943237</ele><time>2007-08-25T14:15:23Z</time></trkpt>
<trkpt lat="43.50360340" lon="6.68987330"><ele>89.539917</ele><time>2007-08-25T14:15:27Z</time></trkpt>
<trkpt lat="43.50352200" lon="6.69064730"><ele>89.059326</ele><time>2007-08-25T14:15:37Z</time></trkpt>
<trkpt lat="43.50338130" lon="6.69089480"><ele>88.098022</ele><time>2007-08-25T14:15:41Z</time></trkpt>
<trkpt lat="43.50302960" lon="6.69116410"><ele>85.69458</ele><time>2007-08-25T14:15:48Z</time></trkpt>
<trkpt lat="43.50294090" lon="6.69125300"><ele>87.136597</ele><time>2007-08-25T14:15:50Z</time></trkpt>
<trkpt lat="43.50255360" lon="6.69148090"><ele>86.175293</ele><time>2007-08-25T14:15:58Z</time></trkpt>
<trkpt lat="43.50194600" lon="6.69193440"><ele>85.213989</ele><time>2007-08-25T14:16:10Z</time></trkpt>
<trkpt lat="43.50176550" lon="6.69220860"><ele>83.291382</ele><time>2007-08-25T14:16:15Z</time></trkpt>
<trkpt lat="43.50159950" lon="6.69245210"><ele>83.291382</ele><time>2007-08-25T14:16:20Z</time></trkpt>
<trkpt lat="43.50146060" lon="6.69266010"><ele>83.291382</ele><time>2007-08-25T14:16:24Z</time></trkpt>
<trkpt lat="43.50110420" lon="6.69306800"><ele>79.926636</ele><time>2007-08-25T14:16:33Z</time></trkpt>
<trkpt lat="43.50106070" lon="6.69310100"><ele>79.926636</ele><time>2007-08-25T14:16:34Z</time></trkpt>
<trkpt lat="43.50084240" lon="6.69336100"><ele>79.926636</ele><time>2007-08-25T14:16:40Z</time></trkpt>
<trkpt lat="43.50072810" lon="6.69349790"><ele>78.484741</ele><time>2007-08-25T14:16:43Z</time></trkpt>
<trkpt lat="43.50041420" lon="6.69383100"><ele>78.965454</ele><time>2007-08-25T14:16:51Z</time></trkpt>
<trkpt lat="43.49993660" lon="6.69445650"><ele>79.446045</ele><time>2007-08-25T14:17:03Z</time></trkpt>
<trkpt lat="43.49978900" lon="6.69469860"><ele>78.004028</ele><time>2007-08-25T14:17:07Z</time></trkpt>
<trkpt lat="43.49922430" lon="6.69540760"><ele>75.60083</ele><time>2007-08-25T14:17:20Z</time></trkpt>
<trkpt lat="43.49873430" lon="6.69612580"><ele>73.197632</ele><time>2007-08-25T14:17:32Z</time></trkpt>
<trkpt lat="43.49860680" lon="6.69643920"><ele>72.716919</ele><time>2007-08-25T14:17:37Z</time></trkpt>
<trkpt lat="43.49838550" lon="6.69648410"><ele>73.678223</ele><time>2007-08-25T14:17:44Z</time></trkpt>
<trkpt lat="43.49835160" lon="6.69646960"><ele>73.678223</ele><time>2007-08-25T14:17:45Z</time></trkpt>
<trkpt lat="43.49785980" lon="6.69633340"><ele>74.639526</ele><time>2007-08-25T14:18:01Z</time></trkpt>
<trkpt lat="43.49736210" lon="6.69617480"><ele>71.274902</ele><time>2007-08-25T14:18:12Z</time></trkpt>
<trkpt lat="43.49730810" lon="6.69615990"><ele>71.274902</ele><time>2007-08-25T14:18:13Z</time></trkpt>
<trkpt lat="43.49714020" lon="6.69611490"><ele>70.313477</ele><time>2007-08-25T14:18:16Z</time></trkpt>
<trkpt lat="43.49654840" lon="6.69575680"><ele>69.832886</ele><time>2007-08-25T14:18:29Z</time></trkpt>
<trkpt lat="43.49637660" lon="6.69569670"><ele>69.352295</ele><time>2007-08-25T14:18:33Z</time></trkpt>
<trkpt lat="43.49623420" lon="6.69566830"><ele>67.910278</ele><time>2007-08-25T14:18:36Z</time></trkpt>
<trkpt lat="43.49590810" lon="6.69561390"><ele>66.948975</ele><time>2007-08-25T14:18:43Z</time></trkpt>
<trkpt lat="43.49575270" lon="6.69573110"><ele>66.948975</ele><time>2007-08-25T14:18:48Z</time></trkpt>
<trkpt lat="43.49576770" lon="6.69584550"><ele>66.468262</ele><time>2007-08-25T14:18:53Z</time></trkpt>
<trkpt lat="43.49587620" lon="6.69595600"><ele>66.468262</ele><time>2007-08-25T14:18:59Z</time></trkpt>
<trkpt lat="43.49585970" lon="6.69616310"><ele>65.50708</ele><time>2007-08-25T14:19:06Z</time></trkpt>
<trkpt lat="43.49584210" lon="6.69618600"><ele>65.026367</ele><time>2007-08-25T14:19:11Z</time></trkpt>
<trkpt lat="43.49581780" lon="6.69614490"><ele>65.50708</ele><time>2007-08-25T14:19:26Z</time></trkpt>
<trkpt lat="43.49573790" lon="6.69605840"><ele>65.987671</ele><time>2007-08-25T14:19:41Z</time></trkpt>
<trkpt lat="43.49572000" lon="6.69605330"><ele>66.468262</ele><time>2007-08-25T14:19:43Z</time></trkpt>
<trkpt lat="43.49558480" lon="6.69600800"><ele>67.910278</ele><time>2007-08-25T14:19:57Z</time></trkpt>
<trkpt lat="43.49550710" lon="6.69597070"><ele>69.352295</ele><time>2007-08-25T14:20:06Z</time></trkpt>
<trkpt lat="43.49531580" lon="6.69589890"><ele>69.832886</ele><time>2007-08-25T14:20:17Z</time></trkpt>
<trkpt lat="43.49514640" lon="6.69587180"><ele>70.313477</ele><time>2007-08-25T14:20:32Z</time></trkpt>
<trkpt lat="43.49506260" lon="6.69585830"><ele>69.352295</ele><time>2007-08-25T14:20:44Z</time></trkpt>
<trkpt lat="43.49496010" lon="6.69575130"><ele>69.352295</ele><time>2007-08-25T14:20:50Z</time></trkpt>
<trkpt lat="43.49470320" lon="6.69603770"><ele>71.274902</ele><time>2007-08-25T14:21:04Z</time></trkpt>
<trkpt lat="43.49468240" lon="6.69605010"><ele>71.755493</ele><time>2007-08-25T14:21:05Z</time></trkpt>
<trkpt lat="43.49461570" lon="6.69612640"><ele>70.313477</ele><time>2007-08-25T14:21:09Z</time></trkpt>
<trkpt lat="43.49426570" lon="6.69606000"><ele>70.794189</ele><time>2007-08-25T14:21:23Z</time></trkpt>
<trkpt lat="43.49390710" lon="6.69591750"><ele>71.755493</ele><time>2007-08-25T14:21:36Z</time></trkpt>
<trkpt lat="43.49366650" lon="6.69568990"><ele>72.236206</ele><time>2007-08-25T14:21:47Z</time></trkpt>
<trkpt lat="43.49356450" lon="6.69568800"><ele>72.716919</ele><time>2007-08-25T14:21:51Z</time></trkpt>
<trkpt lat="43.49325420" lon="6.69549850"><ele>73.678223</ele><time>2007-08-25T14:22:06Z</time></trkpt>
<trkpt lat="43.49303510" lon="6.69546260"><ele>73.678223</ele><time>2007-08-25T14:22:19Z</time></trkpt>
<trkpt lat="43.49277150" lon="6.69570500"><ele>76.562134</ele><time>2007-08-25T14:22:35Z</time></trkpt>
<trkpt lat="43.49247670" lon="6.69614860"><ele>75.120239</ele><time>2007-08-25T14:22:48Z</time></trkpt>
<trkpt lat="43.49222030" lon="6.69663350"><ele>73.678223</ele><time>2007-08-25T14:23:00Z</time></trkpt>
<trkpt lat="43.49197400" lon="6.69726950"><ele>74.158813</ele><time>2007-08-25T14:23:14Z</time></trkpt>
<trkpt lat="43.49154430" lon="6.69778750"><ele>74.158813</ele><time>2007-08-25T14:23:29Z</time></trkpt>
<trkpt lat="43.49125210" lon="6.69823360"><ele>74.158813</ele><time>2007-08-25T14:23:40Z</time></trkpt>
<trkpt lat="43.49108280" lon="6.69853660"><ele>74.158813</ele><time>2007-08-25T14:23:47Z</time></trkpt>
<trkpt lat="43.49072380" lon="6.69876930"><ele>74.158813</ele><time>2007-08-25T14:24:01Z</time></trkpt>
<trkpt lat="43.49072120" lon="6.69877650"><ele>75.60083</ele><time>2007-08-25T14:24:20Z</time></trkpt>
<trkpt lat="43.49065840" lon="6.69881270"><ele>75.60083</ele><time>2007-08-25T14:24:43Z</time></trkpt>
<trkpt lat="43.49065640" lon="6.69880030"><ele>74.639526</ele><time>2007-08-25T14:25:14Z</time></trkpt>
<trkpt lat="43.49061400" lon="6.69883140"><ele>74.639526</ele><time>2007-08-25T14:25:33Z</time></trkpt>
<trkpt lat="43.49030150" lon="6.69890930"><ele>74.158813</ele><time>2007-08-25T14:25:46Z</time></trkpt>
<trkpt lat="43.49022660" lon="6.69884840"><ele>75.120239</ele><time>2007-08-25T14:25:51Z</time></trkpt>
<trkpt lat="43.48999300" lon="6.69829580"><ele>73.678223</ele><time>2007-08-25T14:26:05Z</time></trkpt>
<trkpt lat="43.48966450" lon="6.69794450"><ele>75.60083</ele><time>2007-08-25T14:26:18Z</time></trkpt>
<trkpt lat="43.48964680" lon="6.69792270"><ele>76.081421</ele><time>2007-08-25T14:26:19Z</time></trkpt>
<trkpt lat="43.48950900" lon="6.69785690"><ele>77.042847</ele><time>2007-08-25T14:26:26Z</time></trkpt>
<trkpt lat="43.48932700" lon="6.69774600"><ele>76.562134</ele><time>2007-08-25T14:26:34Z</time></trkpt>
<trkpt lat="43.48928120" lon="6.69740690"><ele>72.236206</ele><time>2007-08-25T14:26:42Z</time></trkpt>
<trkpt lat="43.48927310" lon="6.69735970"><ele>71.755493</ele><time>2007-08-25T14:26:43Z</time></trkpt>
<trkpt lat="43.48900170" lon="6.69741820"><ele>69.352295</ele><time>2007-08-25T14:26:51Z</time></trkpt>
<trkpt lat="43.48851330" lon="6.69755270"><ele>66.468262</ele><time>2007-08-25T14:27:00Z</time></trkpt>
<trkpt lat="43.48832180" lon="6.69766570"><ele>66.948975</ele><time>2007-08-25T14:27:04Z</time></trkpt>
<trkpt lat="43.48791730" lon="6.69823150"><ele>66.948975</ele><time>2007-08-25T14:27:19Z</time></trkpt>
<trkpt lat="43.48754380" lon="6.69840310"><ele>69.352295</ele><time>2007-08-25T14:27:32Z</time></trkpt>
<trkpt lat="43.48705990" lon="6.69846090"><ele>70.313477</ele><time>2007-08-25T14:27:47Z</time></trkpt>
<trkpt lat="43.48657280" lon="6.69819740"><ele>72.236206</ele><time>2007-08-25T14:28:04Z</time></trkpt>
<trkpt lat="43.48649630" lon="6.69821320"><ele>71.755493</ele><time>2007-08-25T14:28:07Z</time></trkpt>
<trkpt lat="43.48640050" lon="6.69836930"><ele>72.716919</ele><time>2007-08-25T14:28:17Z</time></trkpt>
<trkpt lat="43.48640980" lon="6.69837590"><ele>73.678223</ele><time>2007-08-25T14:28:37Z</time></trkpt>
<trkpt lat="43.48634540" lon="6.69865940"><ele>72.236206</ele><time>2007-08-25T14:28:46Z</time></trkpt>
<trkpt lat="43.48607260" lon="6.69911950"><ele>73.678223</ele><time>2007-08-25T14:29:03Z</time></trkpt>
<trkpt lat="43.48596310" lon="6.69923270"><ele>75.60083</ele><time>2007-08-25T14:29:08Z</time></trkpt>
<trkpt lat="43.48569960" lon="6.69948210"><ele>75.120239</ele><time>2007-08-25T14:29:22Z</time></trkpt>
<trkpt lat="43.48558680" lon="6.69964050"><ele>74.639526</ele><time>2007-08-25T14:29:29Z</time></trkpt>
<trkpt lat="43.48549410" lon="6.69983270"><ele>71.755493</ele><time>2007-08-25T14:29:37Z</time></trkpt>
<trkpt lat="43.48538140" lon="6.69996090"><ele>69.352295</ele><time>2007-08-25T14:29:43Z</time></trkpt>
<trkpt lat="43.48531710" lon="6.70002640"><ele>68.871582</ele><time>2007-08-25T14:29:46Z</time></trkpt>
<trkpt lat="43.48506760" lon="6.70003470"><ele>66.468262</ele><time>2007-08-25T14:29:57Z</time></trkpt>
<trkpt lat="43.48501790" lon="6.70004120"><ele>65.026367</ele><time>2007-08-25T14:29:59Z</time></trkpt>
<trkpt lat="43.48492040" lon="6.70004120"><ele>63.103638</ele><time>2007-08-25T14:30:05Z</time></trkpt>
<trkpt lat="43.48486920" lon="6.70009640"><ele>62.142334</ele><time>2007-08-25T14:30:09Z</time></trkpt>
<trkpt lat="43.48483180" lon="6.70021560"><ele>60.700317</ele><time>2007-08-25T14:30:14Z</time></trkpt>
<trkpt lat="43.48477010" lon="6.70026830"><ele>60.219727</ele><time>2007-08-25T14:30:25Z</time></trkpt>
<trkpt lat="43.48471030" lon="6.70037840"><ele>59.258423</ele><time>2007-08-25T14:32:18Z</time></trkpt>
<trkpt lat="43.48461450" lon="6.70039780"><ele>56.855103</ele><time>2007-08-25T14:32:22Z</time></trkpt>
<trkpt lat="43.48456550" lon="6.70035650"><ele>56.374512</ele><time>2007-08-25T14:32:24Z</time></trkpt>
<trkpt lat="43.48450510" lon="6.70039210"><ele>56.855103</ele><time>2007-08-25T14:32:28Z</time></trkpt>
<trkpt lat="43.48433100" lon="6.70051450"><ele>55.413086</ele><time>2007-08-25T14:32:36Z</time></trkpt>
<trkpt lat="43.48420260" lon="6.70058950"><ele>54.451782</ele><time>2007-08-25T14:32:40Z</time></trkpt>
<trkpt lat="43.48395780" lon="6.70071480"><ele>53.009766</ele><time>2007-08-25T14:32:47Z</time></trkpt>
<trkpt lat="43.48375290" lon="6.70082310"><ele>49.164551</ele><time>2007-08-25T14:32:52Z</time></trkpt>
<trkpt lat="43.48347310" lon="6.70088770"><ele>51.087158</ele><time>2007-08-25T14:32:59Z</time></trkpt>
<trkpt lat="43.48342290" lon="6.70085610"><ele>51.567871</ele><time>2007-08-25T14:33:01Z</time></trkpt>
<trkpt lat="43.48336070" lon="6.70097220"><ele>52.048584</ele><time>2007-08-25T14:33:09Z</time></trkpt>
<trkpt lat="43.48329340" lon="6.70100230"><ele>50.606567</ele><time>2007-08-25T14:33:12Z</time></trkpt>
<trkpt lat="43.48278540" lon="6.70108460"><ele>51.087158</ele><time>2007-08-25T14:33:33Z</time></trkpt>
<trkpt lat="43.48215380" lon="6.70110490"><ele>51.087158</ele><time>2007-08-25T14:33:56Z</time></trkpt>
<trkpt lat="43.48147990" lon="6.70113110"><ele>52.529175</ele><time>2007-08-25T14:34:18Z</time></trkpt>
<trkpt lat="43.48085820" lon="6.70120590"><ele>53.009766</ele><time>2007-08-25T14:34:38Z</time></trkpt>
<trkpt lat="43.48029890" lon="6.70110580"><ele>52.529175</ele><time>2007-08-25T14:34:55Z</time></trkpt>
<trkpt lat="43.47969030" lon="6.70090380"><ele>53.490479</ele><time>2007-08-25T14:35:12Z</time></trkpt>
<trkpt lat="43.47900630" lon="6.70077270"><ele>51.087158</ele><time>2007-08-25T14:35:31Z</time></trkpt>
<trkpt lat="43.47856100" lon="6.70082250"><ele>52.529175</ele><time>2007-08-25T14:35:44Z</time></trkpt>
<trkpt lat="43.47793560" lon="6.70096180"><ele>52.048584</ele><time>2007-08-25T14:36:02Z</time></trkpt>
<trkpt lat="43.47770980" lon="6.70091730"><ele>51.567871</ele><time>2007-08-25T14:36:07Z</time></trkpt>
<trkpt lat="43.47695070" lon="6.70079980"><ele>51.567871</ele><time>2007-08-25T14:36:26Z</time></trkpt>
<trkpt lat="43.47678960" lon="6.70080290"><ele>50.606567</ele><time>2007-08-25T14:36:30Z</time></trkpt>
<trkpt lat="43.47652300" lon="6.70075000"><ele>50.606567</ele><time>2007-08-25T14:36:36Z</time></trkpt>
<trkpt lat="43.47632400" lon="6.70062790"><ele>50.125977</ele><time>2007-08-25T14:36:41Z</time></trkpt>
<trkpt lat="43.47609670" lon="6.70050560"><ele>49.164551</ele><time>2007-08-25T14:36:47Z</time></trkpt>
<trkpt lat="43.47587670" lon="6.70055010"><ele>47.241821</ele><time>2007-08-25T14:36:52Z</time></trkpt>
<trkpt lat="43.47564130" lon="6.70066190"><ele>45.319214</ele><time>2007-08-25T14:36:57Z</time></trkpt>
<trkpt lat="43.47551560" lon="6.70078730"><ele>44.358032</ele><time>2007-08-25T14:37:00Z</time></trkpt>
<trkpt lat="43.47536480" lon="6.70079810"><ele>44.358032</ele><time>2007-08-25T14:37:03Z</time></trkpt>
<trkpt lat="43.47513470" lon="6.70074680"><ele>43.396606</ele><time>2007-08-25T14:37:08Z</time></trkpt>
<trkpt lat="43.47474890" lon="6.70049570"><ele>44.838623</ele><time>2007-08-25T14:37:19Z</time></trkpt>
<trkpt lat="43.47468340" lon="6.70027850"><ele>43.877319</ele><time>2007-08-25T14:37:23Z</time></trkpt>
<trkpt lat="43.47466080" lon="6.70008320"><ele>43.396606</ele><time>2007-08-25T14:37:26Z</time></trkpt>
<trkpt lat="43.47468320" lon="6.69978870"><ele>42.435425</ele><time>2007-08-25T14:37:30Z</time></trkpt>
<trkpt lat="43.47471140" lon="6.69963110"><ele>41.473999</ele><time>2007-08-25T14:37:32Z</time></trkpt>
<trkpt lat="43.47474280" lon="6.69946430"><ele>40.032104</ele><time>2007-08-25T14:37:34Z</time></trkpt>
<trkpt lat="43.47482400" lon="6.69876810"><ele>37.628662</ele><time>2007-08-25T14:37:41Z</time></trkpt>
<trkpt lat="43.47503310" lon="6.69844070"><ele>38.590088</ele><time>2007-08-25T14:37:46Z</time></trkpt>
<trkpt lat="43.47534560" lon="6.69817510"><ele>37.148071</ele><time>2007-08-25T14:37:52Z</time></trkpt>
<trkpt lat="43.47538180" lon="6.69786610"><ele>33.302856</ele><time>2007-08-25T14:37:58Z</time></trkpt>
<trkpt lat="43.47529650" lon="6.69774470"><ele>31.380127</ele><time>2007-08-25T14:38:03Z</time></trkpt>
<trkpt lat="43.47509430" lon="6.69773210"><ele>28.496216</ele><time>2007-08-25T14:38:07Z</time></trkpt>
<trkpt lat="43.47470170" lon="6.69745530"><ele>26.573608</ele><time>2007-08-25T14:38:14Z</time></trkpt>
<trkpt lat="43.47453830" lon="6.69722760"><ele>28.015503</ele><time>2007-08-25T14:38:18Z</time></trkpt>
<trkpt lat="43.47438190" lon="6.69711100"><ele>28.015503</ele><time>2007-08-25T14:38:22Z</time></trkpt>
<trkpt lat="43.47389090" lon="6.69686170"><ele>30.418823</ele><time>2007-08-25T14:38:39Z</time></trkpt>
<trkpt lat="43.47353190" lon="6.69670390"><ele>34.26416</ele><time>2007-08-25T14:38:57Z</time></trkpt>
<trkpt lat="43.47336210" lon="6.69665160"><ele>35.225464</ele><time>2007-08-25T14:39:08Z</time></trkpt>
<trkpt lat="43.47333480" lon="6.69660990"><ele>35.706055</ele><time>2007-08-25T14:39:12Z</time></trkpt>
<trkpt lat="43.47343810" lon="6.69651380"><ele>34.744873</ele><time>2007-08-25T14:39:22Z</time></trkpt>
<trkpt lat="43.47346220" lon="6.69651160"><ele>33.783447</ele><time>2007-08-25T14:39:35Z</time></trkpt>
<trkpt lat="43.47346460" lon="6.69651920"><ele>34.744873</ele><time>2007-08-25T14:39:43Z</time></trkpt>
<trkpt lat="43.47336940" lon="6.69653710"><ele>34.26416</ele><time>2007-08-25T14:39:49Z</time></trkpt>
<trkpt lat="43.47325850" lon="6.69667360"><ele>35.225464</ele><time>2007-08-25T14:39:59Z</time></trkpt>
<trkpt lat="43.47312490" lon="6.69668870"><ele>33.302856</ele><time>2007-08-25T14:40:03Z</time></trkpt>
<trkpt lat="43.47260330" lon="6.69676480"><ele>33.783447</ele><time>2007-08-25T14:40:19Z</time></trkpt>
<trkpt lat="43.47228570" lon="6.69651430"><ele>34.744873</ele><time>2007-08-25T14:40:32Z</time></trkpt>
<trkpt lat="43.47219180" lon="6.69618110"><ele>34.26416</ele><time>2007-08-25T14:40:42Z</time></trkpt>
<trkpt lat="43.47209650" lon="6.69581500"><ele>34.26416</ele><time>2007-08-25T14:40:50Z</time></trkpt>
<trkpt lat="43.47205670" lon="6.69580250"><ele>34.744873</ele><time>2007-08-25T14:40:53Z</time></trkpt>
<trkpt lat="43.47216400" lon="6.69602880"><ele>33.783447</ele><time>2007-08-25T14:41:02Z</time></trkpt>
<trkpt lat="43.47236290" lon="6.69664680"><ele>33.783447</ele><time>2007-08-25T14:41:18Z</time></trkpt>
<trkpt lat="43.47246950" lon="6.69672630"><ele>33.302856</ele><time>2007-08-25T14:41:21Z</time></trkpt>
<trkpt lat="43.47268510" lon="6.69677220"><ele>32.822266</ele><time>2007-08-25T14:41:26Z</time></trkpt>
<trkpt lat="43.47333340" lon="6.69665520"><ele>33.783447</ele><time>2007-08-25T14:41:45Z</time></trkpt>
<trkpt lat="43.47336610" lon="6.69655470"><ele>33.783447</ele><time>2007-08-25T14:41:49Z</time></trkpt>
<trkpt lat="43.47350360" lon="6.69652750"><ele>34.26416</ele><time>2007-08-25T14:41:55Z</time></trkpt>
<trkpt lat="43.47364010" lon="6.69645900"><ele>34.744873</ele><time>2007-08-25T14:42:01Z</time></trkpt>
<trkpt lat="43.47355640" lon="6.69622550"><ele>36.186768</ele><time>2007-08-25T14:42:12Z</time></trkpt>
<trkpt lat="43.47318950" lon="6.69610020"><ele>38.109375</ele><time>2007-08-25T14:42:33Z</time></trkpt>
<trkpt lat="43.47295600" lon="6.69604990"><ele>41.473999</ele><time>2007-08-25T14:42:46Z</time></trkpt>
<trkpt lat="43.47284860" lon="6.69586640"><ele>44.358032</ele><time>2007-08-25T14:42:57Z</time></trkpt>
<trkpt lat="43.47304000" lon="6.69562100"><ele>45.319214</ele><time>2007-08-25T14:43:12Z</time></trkpt>
<trkpt lat="43.47333780" lon="6.69520690"><ele>43.396606</ele><time>2007-08-25T14:43:29Z</time></trkpt>
<trkpt lat="43.47345790" lon="6.69517020"><ele>43.877319</ele><time>2007-08-25T14:43:32Z</time></trkpt>
<trkpt lat="43.47353820" lon="6.69501050"><ele>43.396606</ele><time>2007-08-25T14:43:36Z</time></trkpt>
<trkpt lat="43.47374710" lon="6.69445930"><ele>43.877319</ele><time>2007-08-25T14:43:50Z</time></trkpt>
<trkpt lat="43.47371440" lon="6.69377290"><ele>43.877319</ele><time>2007-08-25T14:44:04Z</time></trkpt>
<trkpt lat="43.47375120" lon="6.69321280"><ele>45.799927</ele><time>2007-08-25T14:44:18Z</time></trkpt>
<trkpt lat="43.47382920" lon="6.69288200"><ele>47.722534</ele><time>2007-08-25T14:44:27Z</time></trkpt>
<trkpt lat="43.47385970" lon="6.69277060"><ele>48.68396</ele><time>2007-08-25T14:44:31Z</time></trkpt>
<trkpt lat="43.47396450" lon="6.69271140"><ele>50.125977</ele><time>2007-08-25T14:44:37Z</time></trkpt>
<trkpt lat="43.47404790" lon="6.69283320"><ele>49.164551</ele><time>2007-08-25T14:44:42Z</time></trkpt>
<trkpt lat="43.47442180" lon="6.69312580"><ele>51.087158</ele><time>2007-08-25T14:44:59Z</time></trkpt>
<trkpt lat="43.47482580" lon="6.69315760"><ele>53.009766</ele><time>2007-08-25T14:45:14Z</time></trkpt>
<trkpt lat="43.47524150" lon="6.69321360"><ele>53.009766</ele><time>2007-08-25T14:45:28Z</time></trkpt>
<trkpt lat="43.47575120" lon="6.69315920"><ele>53.009766</ele><time>2007-08-25T14:45:44Z</time></trkpt>
<trkpt lat="43.47616870" lon="6.69319800"><ele>53.490479</ele><time>2007-08-25T14:45:57Z</time></trkpt>
<trkpt lat="43.47655920" lon="6.69334680"><ele>53.971191</ele><time>2007-08-25T14:46:09Z</time></trkpt>
<trkpt lat="43.47705600" lon="6.69355640"><ele>53.490479</ele><time>2007-08-25T14:46:23Z</time></trkpt>
<trkpt lat="43.47756020" lon="6.69347200"><ele>53.971191</ele><time>2007-08-25T14:46:37Z</time></trkpt>
<trkpt lat="43.47795270" lon="6.69332650"><ele>50.606567</ele><time>2007-08-25T14:46:47Z</time></trkpt>
<trkpt lat="43.47800920" lon="6.69330810"><ele>50.606567</ele><time>2007-08-25T14:46:48Z</time></trkpt>
<trkpt lat="43.47806520" lon="6.69328720"><ele>50.125977</ele><time>2007-08-25T14:46:49Z</time></trkpt>
<trkpt lat="43.47841730" lon="6.69325950"><ele>52.048584</ele><time>2007-08-25T14:46:59Z</time></trkpt>
<trkpt lat="43.47875050" lon="6.69349380"><ele>55.893799</ele><time>2007-08-25T14:47:11Z</time></trkpt>
<trkpt lat="43.47882250" lon="6.69353930"><ele>55.893799</ele><time>2007-08-25T14:47:14Z</time></trkpt>
<trkpt lat="43.47886800" lon="6.69353170"><ele>56.374512</ele><time>2007-08-25T14:47:28Z</time></trkpt>
<trkpt lat="43.47887030" lon="6.69352960"><ele>56.374512</ele><time>2007-08-25T14:47:29Z</time></trkpt>
<trkpt lat="43.47900020" lon="6.69341710"><ele>56.855103</ele><time>2007-08-25T14:47:36Z</time></trkpt>
<trkpt lat="43.47931830" lon="6.69288230"><ele>59.258423</ele><time>2007-08-25T14:47:51Z</time></trkpt>
<trkpt lat="43.47939270" lon="6.69272810"><ele>61.18103</ele><time>2007-08-25T14:47:56Z</time></trkpt>
<trkpt lat="43.47958340" lon="6.69247370"><ele>63.103638</ele><time>2007-08-25T14:48:09Z</time></trkpt>
<trkpt lat="43.47990150" lon="6.69206110"><ele>65.026367</ele><time>2007-08-25T14:48:29Z</time></trkpt>
<trkpt lat="43.48008210" lon="6.69169810"><ele>66.948975</ele><time>2007-08-25T14:48:44Z</time></trkpt>
<trkpt lat="43.48008010" lon="6.69166840"><ele>67.429688</ele><time>2007-08-25T14:48:45Z</time></trkpt>
<trkpt lat="43.48011390" lon="6.69157750"><ele>67.429688</ele><time>2007-08-25T14:48:49Z</time></trkpt>
<trkpt lat="43.47994100" lon="6.69130320"><ele>68.871582</ele><time>2007-08-25T14:49:04Z</time></trkpt>
<trkpt lat="43.47978390" lon="6.69111280"><ele>72.236206</ele><time>2007-08-25T14:49:16Z</time></trkpt>
<trkpt lat="43.47965290" lon="6.69101830"><ele>72.236206</ele><time>2007-08-25T14:49:25Z</time></trkpt>
<trkpt lat="43.47963850" lon="6.69099190"><ele>72.716919</ele><time>2007-08-25T14:49:34Z</time></trkpt>
<trkpt lat="43.47963760" lon="6.69100940"><ele>74.158813</ele><time>2007-08-25T14:49:45Z</time></trkpt>
<trkpt lat="43.47963770" lon="6.69099830"><ele>71.274902</ele><time>2007-08-25T14:50:01Z</time></trkpt>
<trkpt lat="43.47963790" lon="6.69099700"><ele>74.639526</ele><time>2007-08-25T14:50:04Z</time></trkpt>
<trkpt lat="43.47964030" lon="6.69099490"><ele>69.352295</ele><time>2007-08-25T14:50:19Z</time></trkpt>
<trkpt lat="43.47964040" lon="6.69099490"><ele>73.197632</ele><time>2007-08-25T14:50:20Z</time></trkpt>
<trkpt lat="43.47964030" lon="6.69098960"><ele>72.716919</ele><time>2007-08-25T14:51:02Z</time></trkpt>
<trkpt lat="43.47963510" lon="6.69098620"><ele>72.716919</ele><time>2007-08-25T14:51:38Z</time></trkpt>
<trkpt lat="43.47963050" lon="6.69097760"><ele>73.197632</ele><time>2007-08-25T14:52:31Z</time></trkpt>
<trkpt lat="43.47966680" lon="6.69097790"><ele>71.755493</ele><time>2007-08-25T14:53:26Z</time></trkpt>
<trkpt lat="43.47967340" lon="6.69097940"><ele>74.158813</ele><time>2007-08-25T14:53:56Z</time></trkpt>
<trkpt lat="43.47974930" lon="6.69062310"><ele>72.716919</ele><time>2007-08-25T14:54:10Z</time></trkpt>
<trkpt lat="43.47987660" lon="6.69025150"><ele>70.313477</ele><time>2007-08-25T14:54:19Z</time></trkpt>
<trkpt lat="43.48000620" lon="6.69010940"><ele>68.871582</ele><time>2007-08-25T14:54:23Z</time></trkpt>
<trkpt lat="43.48009790" lon="6.68993910"><ele>67.429688</ele><time>2007-08-25T14:54:26Z</time></trkpt>
<trkpt lat="43.48022010" lon="6.68947900"><ele>66.948975</ele><time>2007-08-25T14:54:32Z</time></trkpt>
<trkpt lat="43.48031630" lon="6.68873470"><ele>65.50708</ele><time>2007-08-25T14:54:43Z</time></trkpt>
<trkpt lat="43.48050030" lon="6.68843390"><ele>64.545654</ele><time>2007-08-25T14:54:55Z</time></trkpt>
<trkpt lat="43.48053740" lon="6.68838190"><ele>64.545654</ele><time>2007-08-25T14:54:58Z</time></trkpt>
<trkpt lat="43.48052600" lon="6.68845120"><ele>63.584351</ele><time>2007-08-25T14:55:07Z</time></trkpt>
<trkpt lat="43.48052240" lon="6.68837840"><ele>64.545654</ele><time>2007-08-25T14:55:14Z</time></trkpt>
<trkpt lat="43.48064280" lon="6.68833650"><ele>64.065063</ele><time>2007-08-25T14:55:33Z</time></trkpt>
<trkpt lat="43.48064580" lon="6.68834210"><ele>64.065063</ele><time>2007-08-25T14:55:36Z</time></trkpt>
<trkpt lat="43.48054630" lon="6.68831460"><ele>64.065063</ele><time>2007-08-25T14:55:45Z</time></trkpt>
<trkpt lat="43.48055570" lon="6.68834020"><ele>64.545654</ele><time>2007-08-25T14:55:53Z</time></trkpt>
<trkpt lat="43.48076660" lon="6.68829530"><ele>64.545654</ele><time>2007-08-25T14:56:00Z</time></trkpt>
<trkpt lat="43.48116760" lon="6.68760810"><ele>65.026367</ele><time>2007-08-25T14:56:19Z</time></trkpt>
<trkpt lat="43.48138040" lon="6.68725910"><ele>65.50708</ele><time>2007-08-25T14:56:30Z</time></trkpt>
<trkpt lat="43.48181390" lon="6.68743970"><ele>66.468262</ele><time>2007-08-25T14:56:43Z</time></trkpt>
<trkpt lat="43.48203290" lon="6.68721110"><ele>67.429688</ele><time>2007-08-25T14:56:53Z</time></trkpt>
<trkpt lat="43.48215750" lon="6.68686180"><ele>67.910278</ele><time>2007-08-25T14:57:06Z</time></trkpt>
<trkpt lat="43.48219190" lon="6.68670560"><ele>68.871582</ele><time>2007-08-25T14:57:13Z</time></trkpt>
<trkpt lat="43.48218390" lon="6.68618260"><ele>70.313477</ele><time>2007-08-25T14:57:31Z</time></trkpt>
<trkpt lat="43.48215860" lon="6.68571890"><ele>69.352295</ele><time>2007-08-25T14:57:44Z</time></trkpt>
<trkpt lat="43.48231520" lon="6.68537350"><ele>72.236206</ele><time>2007-08-25T14:57:58Z</time></trkpt>
<trkpt lat="43.48242730" lon="6.68514180"><ele>72.716919</ele><time>2007-08-25T14:58:10Z</time></trkpt>
<trkpt lat="43.48242730" lon="6.68514060"><ele>72.716919</ele><time>2007-08-25T14:58:11Z</time></trkpt>
<trkpt lat="43.48243400" lon="6.68505790"><ele>72.236206</ele><time>2007-08-25T14:58:15Z</time></trkpt>
<trkpt lat="43.48244020" lon="6.68462690"><ele>69.352295</ele><time>2007-08-25T14:58:25Z</time></trkpt>
<trkpt lat="43.48256100" lon="6.68425960"><ele>68.390869</ele><time>2007-08-25T14:58:32Z</time></trkpt>
<trkpt lat="43.48260970" lon="6.68415860"><ele>67.910278</ele><time>2007-08-25T14:58:34Z</time></trkpt>
<trkpt lat="43.48267230" lon="6.68405820"><ele>66.948975</ele><time>2007-08-25T14:58:36Z</time></trkpt>
<trkpt lat="43.48268730" lon="6.68376860"><ele>66.468262</ele><time>2007-08-25T14:58:42Z</time></trkpt>
<trkpt lat="43.48258750" lon="6.68357330"><ele>65.50708</ele><time>2007-08-25T14:58:46Z</time></trkpt>
<trkpt lat="43.48251540" lon="6.68323810"><ele>65.026367</ele><time>2007-08-25T14:58:52Z</time></trkpt>
<trkpt lat="43.48262660" lon="6.68276470"><ele>63.103638</ele><time>2007-08-25T14:59:03Z</time></trkpt>
<trkpt lat="43.48262240" lon="6.68253200"><ele>62.142334</ele><time>2007-08-25T14:59:08Z</time></trkpt>
<trkpt lat="43.48260910" lon="6.68241130"><ele>61.661743</ele><time>2007-08-25T14:59:10Z</time></trkpt>
<trkpt lat="43.48254490" lon="6.68221750"><ele>59.739136</ele><time>2007-08-25T14:59:13Z</time></trkpt>
<trkpt lat="43.48234140" lon="6.68197740"><ele>61.661743</ele><time>2007-08-25T14:59:22Z</time></trkpt>
<trkpt lat="43.48209000" lon="6.68214510"><ele>60.700317</ele><time>2007-08-25T14:59:33Z</time></trkpt>
<trkpt lat="43.48159750" lon="6.68236480"><ele>61.18103</ele><time>2007-08-25T14:59:50Z</time></trkpt>
<trkpt lat="43.48129200" lon="6.68246200"><ele>62.142334</ele><time>2007-08-25T15:00:01Z</time></trkpt>
<trkpt lat="43.48121160" lon="6.68251870"><ele>60.700317</ele><time>2007-08-25T15:00:04Z</time></trkpt>
<trkpt lat="43.48105720" lon="6.68259490"><ele>58.77771</ele><time>2007-08-25T15:00:08Z</time></trkpt>
<trkpt lat="43.48094980" lon="6.68259600"><ele>59.739136</ele><time>2007-08-25T15:00:16Z</time></trkpt>
<trkpt lat="43.48095030" lon="6.68258810"><ele>59.739136</ele><time>2007-08-25T15:00:22Z</time></trkpt>
<trkpt lat="43.48088340" lon="6.68242920"><ele>59.258423</ele><time>2007-08-25T15:00:27Z</time></trkpt>
<trkpt lat="43.48070270" lon="6.68214650"><ele>58.77771</ele><time>2007-08-25T15:00:35Z</time></trkpt>
<trkpt lat="43.48030760" lon="6.68210940"><ele>55.413086</ele><time>2007-08-25T15:00:47Z</time></trkpt>
<trkpt lat="43.48026210" lon="6.68209810"><ele>54.932373</ele><time>2007-08-25T15:00:48Z</time></trkpt>
<trkpt lat="43.48016930" lon="6.68205450"><ele>53.971191</ele><time>2007-08-25T15:00:50Z</time></trkpt>
<trkpt lat="43.47996710" lon="6.68201470"><ele>52.048584</ele><time>2007-08-25T15:00:54Z</time></trkpt>
<trkpt lat="43.47976040" lon="6.68196860"><ele>50.606567</ele><time>2007-08-25T15:00:58Z</time></trkpt>
<trkpt lat="43.47958740" lon="6.68180180"><ele>52.048584</ele><time>2007-08-25T15:01:03Z</time></trkpt>
<trkpt lat="43.47944770" lon="6.68160590"><ele>51.567871</ele><time>2007-08-25T15:01:08Z</time></trkpt>
<trkpt lat="43.47945450" lon="6.68113300"><ele>50.125977</ele><time>2007-08-25T15:01:20Z</time></trkpt>
<trkpt lat="43.47947660" lon="6.68100130"><ele>49.164551</ele><time>2007-08-25T15:01:25Z</time></trkpt>
<trkpt lat="43.47945800" lon="6.68098330"><ele>48.68396</ele><time>2007-08-25T15:01:40Z</time></trkpt>
<trkpt lat="43.47945590" lon="6.68099470"><ele>48.203369</ele><time>2007-08-25T15:02:21Z</time></trkpt>
<trkpt lat="43.47929400" lon="6.68085470"><ele>47.722534</ele><time>2007-08-25T15:02:30Z</time></trkpt>
<trkpt lat="43.47923410" lon="6.68082080"><ele>47.241821</ele><time>2007-08-25T15:02:34Z</time></trkpt>
<trkpt lat="43.47918490" lon="6.68079010"><ele>47.241821</ele><time>2007-08-25T15:02:37Z</time></trkpt>
<trkpt lat="43.47916480" lon="6.68074600"><ele>47.241821</ele><time>2007-08-25T15:02:39Z</time></trkpt>
<trkpt lat="43.47893130" lon="6.68069490"><ele>46.76123</ele><time>2007-08-25T15:02:51Z</time></trkpt>
<trkpt lat="43.47883450" lon="6.68065320"><ele>46.76123</ele><time>2007-08-25T15:02:56Z</time></trkpt>
<trkpt lat="43.47880500" lon="6.68061290"><ele>47.722534</ele><time>2007-08-25T15:03:08Z</time></trkpt>
<trkpt lat="43.47876550" lon="6.68055030"><ele>47.241821</ele><time>2007-08-25T15:03:43Z</time></trkpt>
<trkpt lat="43.47870940" lon="6.68043420"><ele>49.164551</ele><time>2007-08-25T15:03:57Z</time></trkpt>
<trkpt lat="43.47871370" lon="6.68042210"><ele>49.645264</ele><time>2007-08-25T15:04:11Z</time></trkpt>
<trkpt lat="43.47870890" lon="6.68019290"><ele>50.606567</ele><time>2007-08-25T15:04:20Z</time></trkpt>
<trkpt lat="43.47869350" lon="6.67968030"><ele>51.567871</ele><time>2007-08-25T15:04:35Z</time></trkpt>
<trkpt lat="43.47876140" lon="6.67903830"><ele>53.971191</ele><time>2007-08-25T15:04:56Z</time></trkpt>
<trkpt lat="43.47881520" lon="6.67865940"><ele>55.893799</ele><time>2007-08-25T15:05:09Z</time></trkpt>
<trkpt lat="43.47880380" lon="6.67861820"><ele>55.893799</ele><time>2007-08-25T15:05:26Z</time></trkpt>
<trkpt lat="43.47880210" lon="6.67861190"><ele>55.893799</ele><time>2007-08-25T15:05:37Z</time></trkpt>
<trkpt lat="43.47888410" lon="6.67849390"><ele>56.374512</ele><time>2007-08-25T15:05:44Z</time></trkpt>
<trkpt lat="43.47902150" lon="6.67822440"><ele>58.297119</ele><time>2007-08-25T15:05:57Z</time></trkpt>
<trkpt lat="43.47915950" lon="6.67800480"><ele>58.297119</ele><time>2007-08-25T15:06:11Z</time></trkpt>
<trkpt lat="43.47937470" lon="6.67768940"><ele>58.297119</ele><time>2007-08-25T15:06:24Z</time></trkpt>
<trkpt lat="43.47947400" lon="6.67746190"><ele>58.77771</ele><time>2007-08-25T15:06:33Z</time></trkpt>
<trkpt lat="43.47948270" lon="6.67743060"><ele>59.258423</ele><time>2007-08-25T15:06:55Z</time></trkpt>
<trkpt lat="43.47948190" lon="6.67743550"><ele>59.739136</ele><time>2007-08-25T15:07:41Z</time></trkpt>
<trkpt lat="43.47948960" lon="6.67741610"><ele>59.258423</ele><time>2007-08-25T15:08:02Z</time></trkpt>
<trkpt lat="43.47965610" lon="6.67735270"><ele>60.219727</ele><time>2007-08-25T15:08:21Z</time></trkpt>
<trkpt lat="43.47983140" lon="6.67734840"><ele>60.219727</ele><time>2007-08-25T15:08:36Z</time></trkpt>
<trkpt lat="43.48010400" lon="6.67735980"><ele>60.219727</ele><time>2007-08-25T15:08:55Z</time></trkpt>
<trkpt lat="43.48022880" lon="6.67722500"><ele>60.219727</ele><time>2007-08-25T15:09:09Z</time></trkpt>
<trkpt lat="43.48027040" lon="6.67702250"><ele>61.661743</ele><time>2007-08-25T15:09:23Z</time></trkpt>
<trkpt lat="43.48010780" lon="6.67671380"><ele>62.142334</ele><time>2007-08-25T15:09:35Z</time></trkpt>
<trkpt lat="43.48006120" lon="6.67612750"><ele>64.065063</ele><time>2007-08-25T15:09:52Z</time></trkpt>
<trkpt lat="43.47992630" lon="6.67546160"><ele>65.987671</ele><time>2007-08-25T15:10:11Z</time></trkpt>
<trkpt lat="43.47988860" lon="6.67525310"><ele>67.429688</ele><time>2007-08-25T15:10:17Z</time></trkpt>
<trkpt lat="43.47988580" lon="6.67514540"><ele>69.352295</ele><time>2007-08-25T15:10:20Z</time></trkpt>
<trkpt lat="43.47969420" lon="6.67497490"><ele>70.313477</ele><time>2007-08-25T15:10:31Z</time></trkpt>
<trkpt lat="43.47950330" lon="6.67492520"><ele>66.468262</ele><time>2007-08-25T15:10:36Z</time></trkpt>
<trkpt lat="43.47921030" lon="6.67484800"><ele>66.468262</ele><time>2007-08-25T15:10:42Z</time></trkpt>
<trkpt lat="43.47906640" lon="6.67460650"><ele>68.871582</ele><time>2007-08-25T15:10:48Z</time></trkpt>
<trkpt lat="43.47895980" lon="6.67394360"><ele>69.832886</ele><time>2007-08-25T15:11:03Z</time></trkpt>
<trkpt lat="43.47897630" lon="6.67395650"><ele>67.910278</ele><time>2007-08-25T15:11:15Z</time></trkpt>
<trkpt lat="43.47898830" lon="6.67395710"><ele>70.794189</ele><time>2007-08-25T15:18:51Z</time></trkpt>
<trkpt lat="43.47898350" lon="6.67397770"><ele>70.794189</ele><time>2007-08-25T15:19:13Z</time></trkpt>
<trkpt lat="43.47898010" lon="6.67397840"><ele>68.871582</ele><time>2007-08-25T15:19:31Z</time></trkpt>
</trkseg></trk></gpx>